NOAA Web Site Link Tides and Currents Home Page Transparent placeholder image

PORTS® Data Listing: 8516945 Kings Point, NY

CO-OPS RAW PORTS DATA

************************      PRELIMINARY DATA      ************************** 

     THIS RAW DATA HAS NOT BEEN SUBJECT TO THE NATIONAL OCEAN SERVICE'S        
     QUALITY CONTROL OR QUALITY ASSURANCE PROCEDURES AND DOES NOT MEET         
     THE CRITERIA AND STANDARDS OF OFFICIAL NATIONAL OCEAN SERVICE             
     DATA.  IT IS RELEASED FOR LIMITED PUBLIC USE AS PRELIMINARY DATA TO       
     BE USED ONLY WITH APPROPRIATE CAUTION.                                    

************************      PRELIMINARY DATA      ************************** 


       CD   -   Calendar date
       T    -   Time
       TZ   -   Timezone
       PW   -   Predicted water level (feet above MLLW)
       OW   -   Observed water level (feet above MLLW)
       WS   -   Wind speed (knots)
       WD   -   Wind direction (degrees true)
       WG   -   Wind gust (knots)
       AT   -   Air temperature (degrees farenheit)
       WT   -   Water temperature (degrees farenheit)
       AP   -   Air pressure (millibars)
       SA   -   Salinty (PSU - Practical Salinity Units)
       SG   -   Specific gravity
       RH   -   Relative humidity
       AG   -   Air gap (feet)
       VI   -   Visibility (nautical miles)

       ** NOTE **
       A variable that has its data fields filled with "9"s, indicates that
       data was not collected for that sample period.
       **********


STATION NAME: Kings Point (8516945)
****************************************************************************************************
    CD       T    TZ    PW     OW    WS   WD   WG    AT    WT    AP    SA    SG     RH    AG   VI
****************************************************************************************************
2019/08/15 18:18 EDT    0.64   1.33    9  200   11  76.1  72.7 1016.2 -9.9 -9.999 -99.9 -99.99 -9.99
2019/08/15 18:24 EDT    0.60   1.33    9  199   13  75.9  72.9 1016.2 -9.9 -9.999 -99.9 -99.99 -9.99
2019/08/15 18:30 EDT    0.56   1.30    9  203   11  75.9  72.9 1016.4 -9.9 -9.999 -99.9 -99.99 -9.99
2019/08/15 18:36 EDT    0.53   1.27    9  203   11  75.4  73.0 1016.4 -9.9 -9.999 -99.9 -99.99 -9.99
2019/08/15 18:42 EDT    0.50   1.25   11  202   13  75.4  73.0 1016.5 -9.9 -9.999 -99.9 -99.99 -9.99
2019/08/15 18:48 EDT    0.48   1.23   11  200   14  74.8  73.0 1016.5 -9.9 -9.999 -99.9 -99.99 -9.99
2019/08/15 18:54 EDT    0.47   1.23    8  197   12  75.0  73.2 1016.5 -9.9 -9.999 -99.9 -99.99 -9.99
2019/08/15 19:00 EDT    0.47   1.23    9  197   11  74.8  73.2 1016.5 -9.9 -9.999 -99.9 -99.99 -9.99
2019/08/15 19:06 EDT    0.47   1.21    6  190   11  74.7  73.2 1016.7 -9.9 -9.999 -99.9 -99.99 -9.99
2019/08/15 19:12 EDT    0.49   1.22    5  193    7  74.3  73.2 1016.7 -9.9 -9.999 -99.9 -99.99 -9.99
2019/08/15 19:18 EDT    0.52   1.23    7  193   10  73.6  73.4 1016.5 -9.9 -9.999 -99.9 -99.99 -9.99
2019/08/15 19:24 EDT    0.56   1.25    6  193   11  73.6  73.4 1016.5 -9.9 -9.999 -99.9 -99.99 -9.99
2019/08/15 19:30 EDT    0.61   1.30    7  198    9  73.2  73.4 1016.6 -9.9 -9.999 -99.9 -99.99 -9.99
2019/08/15 19:36 EDT    0.68   1.34    7  195    9  72.9  73.4 1016.5 -9.9 -9.999 -99.9 -99.99 -9.99
2019/08/15 19:42 EDT    0.77   1.39    9  194   10  72.9  73.4 1016.5 -9.9 -9.999 -99.9 -99.99 -9.99
2019/08/15 19:48 EDT    0.87   1.44   11  201   13  72.5  73.4 1016.3 -9.9 -9.999 -99.9 -99.99 -9.99
2019/08/15 19:54 EDT    0.98   1.53   12  212   13  72.1  73.4 1016.5 -9.9 -9.999 -99.9 -99.99 -9.99
2019/08/15 20:00 EDT    1.11   1.61   10  203   13  72.0  73.4 1016.5 -9.9 -9.999 -99.9 -99.99 -9.99
2019/08/15 20:06 EDT    1.26   1.73    8  198   11  71.8  73.4 1016.5 -9.9 -9.999 -99.9 -99.99 -9.99
2019/08/15 20:12 EDT    1.42   1.86    8  196   11  71.6  73.4 1016.4 -9.9 -9.999 -99.9 -99.99 -9.99
2019/08/15 20:18 EDT    1.59   2.01    6  201   10  71.4  73.4 1016.4 -9.9 -9.999 -99.9 -99.99 -9.99
2019/08/15 20:24 EDT    1.78   2.18    6  196    9  71.4  73.4 1016.5 -9.9 -9.999 -99.9 -99.99 -9.99
2019/08/15 20:30 EDT    1.98   2.37    7  194    8  71.2  73.0 1016.7 -9.9 -9.999 -99.9 -99.99 -9.99
2019/08/15 20:36 EDT    2.20   2.56    8  194   10  71.2  72.9 1016.7 -9.9 -9.999 -99.9 -99.99 -9.99
2019/08/15 20:42 EDT    2.42   2.77    5  191    8  71.2  72.9 1016.7 -9.9 -9.999 -99.9 -99.99 -9.99
2019/08/15 20:48 EDT    2.65   2.99    5  198    8  71.1  72.7 1016.8 -9.9 -9.999 -99.9 -99.99 -9.99
2019/08/15 20:54 EDT    2.89   3.22    9  197   12  70.9  72.7 1016.9 -9.9 -9.999 -99.9 -99.99 -9.99
2019/08/15 21:00 EDT    3.13   3.46    7  196   10  70.9  72.7 1016.9 -9.9 -9.999 -99.9 -99.99 -9.99
2019/08/15 21:06 EDT    3.38   3.70    4  184    7  70.9  72.7 1017.1 -9.9 -9.999 -99.9 -99.99 -9.99
2019/08/15 21:12 EDT    3.63   3.95    5  177    7  70.7  72.7 1017.2 -9.9 -9.999 -99.9 -99.99 -9.99
2019/08/15 21:18 EDT    3.88   4.20    2  176    6  70.7  72.7 1017.2 -9.9 -9.999 -99.9 -99.99 -9.99
2019/08/15 21:24 EDT    4.13   4.46    1  177    4  70.7  72.7 1017.1 -9.9 -9.999 -99.9 -99.99 -9.99
2019/08/15 21:30 EDT    4.37   4.72    2  181    3  70.7  72.7 1017.1 -9.9 -9.999 -99.9 -99.99 -9.99
2019/08/15 21:36 EDT    4.62   4.99    0   73    2  70.5  72.5 1017.1 -9.9 -9.999 -99.9 -99.99 -9.99
2019/08/15 21:42 EDT    4.85   5.23    0  166    1  70.5  72.5 1017.2 -9.9 -9.999 -99.9 -99.99 -9.99
2019/08/15 21:48 EDT    5.08   5.48    2  179    4  70.3  72.5 1017.0 -9.9 -9.999 -99.9 -99.99 -9.99
2019/08/15 21:54 EDT    5.30   5.73    0  198    2  70.3  72.5 1017.0 -9.9 -9.999 -99.9 -99.99 -9.99
2019/08/15 22:00 EDT    5.51   5.97    2  101    3  70.3  72.5 1017.1 -9.9 -9.999 -99.9 -99.99 -9.99
2019/08/15 22:06 EDT    5.71   6.20    1   77    2  70.3  72.5 1017.0 -9.9 -9.999 -99.9 -99.99 -9.99
2019/08/15 22:12 EDT    5.90   6.43    1  100    3  70.5  72.5 1017.1 -9.9 -9.999 -99.9 -99.99 -9.99
2019/08/15 22:18 EDT    6.08   6.65    2   83    2  70.3  72.5 1017.1 -9.9 -9.999 -99.9 -99.99 -9.99
2019/08/15 22:24 EDT    6.24   6.86    1  131    2  70.3  72.5 1017.1 -9.9 -9.999 -99.9 -99.99 -9.99
2019/08/15 22:30 EDT    6.40   7.06    1   74    1  70.3  72.5 1017.1 -9.9 -9.999 -99.9 -99.99 -9.99
2019/08/15 22:36 EDT    6.55   7.25    2   80    3  70.3  72.3 1017.3 -9.9 -9.999 -99.9 -99.99 -9.99
2019/08/15 22:42 EDT    6.68   7.42    2  104    3  70.5  72.3 1017.4 -9.9 -9.999 -99.9 -99.99 -9.99
2019/08/15 22:48 EDT    6.81   7.57    3  122    3  70.3  72.3 1017.4 -9.9 -9.999 -99.9 -99.99 -9.99
2019/08/15 22:54 EDT    6.93   7.71    2  186    3  70.3  72.3 1017.4 -9.9 -9.999 -99.9 -99.99 -9.99
2019/08/15 23:00 EDT    7.03   7.84    0  190    4  70.2  72.3 1017.5 -9.9 -9.999 -99.9 -99.99 -9.99
2019/08/15 23:06 EDT    7.13   7.96    0  190    4  70.0  72.3 1017.7 -9.9 -9.999 -99.9 -99.99 -9.99
2019/08/15 23:12 EDT    7.22   8.07    2  127    2  70.0  72.3 1017.7 -9.9 -9.999 -99.9 -99.99 -9.99
2019/08/15 23:18 EDT    7.31   8.17    1  120    2  70.0  72.3 1017.9 -9.9 -9.999 -99.9 -99.99 -9.99
2019/08/15 23:24 EDT    7.38   8.25    2  111    2  70.0  72.3 1017.8 -9.9 -9.999 -99.9 -99.99 -9.99
2019/08/15 23:30 EDT    7.45   8.33    3  120    3  69.8  72.3 1017.8 -9.9 -9.999 -99.9 -99.99 -9.99
2019/08/15 23:36 EDT    7.52   8.39    2  118    4  69.6  72.3 1017.9 -9.9 -9.999 -99.9 -99.99 -9.99
2019/08/15 23:42 EDT    7.58   8.43    2  123    3  69.6  72.3 1017.7 -9.9 -9.999 -99.9 -99.99 -9.99
2019/08/15 23:48 EDT    7.63   8.46    3  114    4  69.4  72.3 1017.7 -9.9 -9.999 -99.9 -99.99 -9.99
2019/08/15 23:54 EDT    7.68   8.49    2   92    3  69.4  72.3 1017.7 -9.9 -9.999 -99.9 -99.99 -9.99
2019/08/16 00:00 EDT    7.73   8.50    4  110    5  68.9  72.3 1017.6 -9.9 -9.999 -99.9 -99.99 -9.99
2019/08/16 00:06 EDT    7.77   8.52    3   96    5  68.9  72.3 1017.6 -9.9 -9.999 -99.9 -99.99 -9.99
2019/08/16 00:12 EDT    7.80   8.54    3   83    4  69.3  72.3 1018.0 -9.9 -9.999 -99.9 -99.99 -9.99
2019/08/16 00:18 EDT    7.83   8.56    2   98    5  69.3  72.3 1018.0 -9.9 -9.999 -99.9 -99.99 -9.99
2019/08/16 00:24 EDT    7.86   8.58    3   80    4  69.3  72.5 1017.8 -9.9 -9.999 -99.9 -99.99 -9.99
2019/08/16 00:30 EDT    7.88   8.60    3   76    4  69.1  72.5 1017.8 -9.9 -9.999 -99.9 -99.99 -9.99
2019/08/16 00:36 EDT    7.89   8.62    3   71    5  69.1  72.5 1017.8 -9.9 -9.999 -99.9 -99.99 -9.99
2019/08/16 00:42 EDT    7.90   8.62    3   76    4  69.1  72.3 1017.9 -9.9 -9.999 -99.9 -99.99 -9.99
2019/08/16 00:48 EDT    7.90   8.63    3   78    5  69.3  72.3 1017.9 -9.9 -9.999 -99.9 -99.99 -9.99
2019/08/16 00:54 EDT    7.90   8.63    3   79    4  69.3  72.3 1018.0 -9.9 -9.999 -99.9 -99.99 -9.99
2019/08/16 01:00 EDT    7.88   8.63    4   88    6  69.3  72.3 1018.0 -9.9 -9.999 -99.9 -99.99 -9.99
2019/08/16 01:06 EDT    7.86   8.61    4   84    6  69.1  72.3 1017.7 -9.9 -9.999 -99.9 -99.99 -9.99
2019/08/16 01:12 EDT    7.83   8.60    4   91    6  69.1  72.3 1017.8 -9.9 -9.999 -99.9 -99.99 -9.99
2019/08/16 01:18 EDT    7.79   8.57    3   78    4  69.1  72.3 1017.6 -9.9 -9.999 -99.9 -99.99 -9.99
2019/08/16 01:24 EDT    7.74   8.54    4   88    5  69.1  72.3 1017.6 -9.9 -9.999 -99.9 -99.99 -9.99
2019/08/16 01:30 EDT    7.68   8.50    3   68    4  69.1  72.3 1017.6 -9.9 -9.999 -99.9 -99.99 -9.99
2019/08/16 01:36 EDT    7.61   8.46    3   86    5  69.1  72.3 1017.8 -9.9 -9.999 -99.9 -99.99 -9.99
2019/08/16 01:42 EDT    7.52   8.40    4   90    6  69.1  72.3 1017.8 -9.9 -9.999 -99.9 -99.99 -9.99
2019/08/16 01:48 EDT    7.43   8.33    4  105    5  69.1  72.3 1017.6 -9.9 -9.999 -99.9 -99.99 -9.99
2019/08/16 01:54 EDT    7.32   8.26    5   77    6  69.1  72.3 1017.6 -9.9 -9.999 -99.9 -99.99 -9.99
2019/08/16 02:00 EDT    7.20   8.17    4  122    6  69.1  72.1 1017.5 -9.9 -9.999 -99.9 -99.99 -9.99
2019/08/16 02:06 EDT    7.07   8.06    3   91    5  69.1  72.1 1017.2 -9.9 -9.999 -99.9 -99.99 -9.99
2019/08/16 02:12 EDT    6.93   7.95    4   95    4  69.1  72.1 1017.3 -9.9 -9.999 -99.9 -99.99 -9.99
2019/08/16 02:18 EDT    6.78   7.83    3   92    5  68.9  72.1 1017.3 -9.9 -9.999 -99.9 -99.99 -9.99
2019/08/16 02:24 EDT    6.62   7.69    4   91    7  68.9  72.1 1017.3 -9.9 -9.999 -99.9 -99.99 -9.99
2019/08/16 02:30 EDT    6.44   7.54    3   87    4  68.9  72.1 1017.3 -9.9 -9.999 -99.9 -99.99 -9.99
2019/08/16 02:36 EDT    6.26   7.38    3  114    5  68.7  72.1 1017.2 -9.9 -9.999 -99.9 -99.99 -9.99
2019/08/16 02:42 EDT    6.07   7.21    2  124    4  68.7  72.1 1017.2 -9.9 -9.999 -99.9 -99.99 -9.99
2019/08/16 02:48 EDT    5.87   7.01    1  129    5  68.7  72.1 1016.9 -9.9 -9.999 -99.9 -99.99 -9.99
2019/08/16 02:54 EDT    5.66   6.80    1  128    3  68.5  72.1 1017.0 -9.9 -9.999 -99.9 -99.99 -9.99
2019/08/16 03:00 EDT    5.45   6.59    1  110    3  68.5  72.1 1017.0 -9.9 -9.999 -99.9 -99.99 -9.99
2019/08/16 03:06 EDT    5.23   6.36    2   97    3  68.4  72.1 1016.9 -9.9 -9.999 -99.9 -99.99 -9.99
2019/08/16 03:12 EDT    5.01   6.14    1  117    3  68.4  72.1 1016.9 -9.9 -9.999 -99.9 -99.99 -9.99
2019/08/16 03:18 EDT    4.79   5.92    2  120    3  68.2  72.1 1016.9 -9.9 -9.999 -99.9 -99.99 -9.99
2019/08/16 03:24 EDT    4.56   5.69    3  117    4  68.2  72.1 1016.9 -9.9 -9.999 -99.9 -99.99 -9.99
2019/08/16 03:30 EDT    4.33   5.46    3  114    4  68.2  72.1 1016.8 -9.9 -9.999 -99.9 -99.99 -9.99
2019/08/16 03:36 EDT    4.11   5.23    2  100    4  68.0  72.1 1016.6 -9.9 -9.999 -99.9 -99.99 -9.99
2019/08/16 03:42 EDT    3.88   5.00    2  111    3  68.0  72.1 1016.7 -9.9 -9.999 -99.9 -99.99 -9.99
2019/08/16 03:48 EDT    3.66   4.77    2   81    3  68.0  72.1 1016.8 -9.9 -9.999 -99.9 -99.99 -9.99
2019/08/16 03:54 EDT    3.44   4.53    2  133    3  68.2  72.1 1016.8 -9.9 -9.999 -99.9 -99.99 -9.99
2019/08/16 04:00 EDT    3.23   4.29    1  108    3  68.0  72.1 1016.7 -9.9 -9.999 -99.9 -99.99 -9.99
2019/08/16 04:06 EDT    3.02   4.06    1  207    1  68.0  72.1 1016.9 -9.9 -9.999 -99.9 -99.99 -9.99
2019/08/16 04:12 EDT    2.82   3.83    1  133    3  68.0  72.1 1017.0 -9.9 -9.999 -99.9 -99.99 -9.99
2019/08/16 04:18 EDT    2.62   3.60    1  126    3  67.8  72.1 1017.1 -9.9 -9.999 -99.9 -99.99 -9.99
2019/08/16 04:24 EDT    2.44   3.38    1  131    3  67.8  72.1 1017.1 -9.9 -9.999 -99.9 -99.99 -9.99
2019/08/16 04:30 EDT    2.26   3.17    2  109    3  67.8  72.1 1017.1 -9.9 -9.999 -99.9 -99.99 -9.99
2019/08/16 04:36 EDT    2.09   2.96    1  133    3  67.6  72.1 1017.0 -9.9 -9.999 -99.9 -99.99 -9.99
2019/08/16 04:42 EDT    1.94   2.76    2  110    4  67.6  72.1 1017.0 -9.9 -9.999 -99.9 -99.99 -9.99
2019/08/16 04:48 EDT    1.79   2.58    2   98    4  67.5  72.1 1017.0 -9.9 -9.999 -99.9 -99.99 -9.99
2019/08/16 04:54 EDT    1.65   2.40    3  110    5  67.5  72.1 1017.0 -9.9 -9.999 -99.9 -99.99 -9.99
2019/08/16 05:00 EDT    1.52   2.22    2  117    4  67.3  72.1 1017.0 -9.9 -9.999 -99.9 -99.99 -9.99
2019/08/16 05:06 EDT    1.40   2.05    3  112    5  67.3  72.1 1017.0 -9.9 -9.999 -99.9 -99.99 -9.99
2019/08/16 05:12 EDT    1.29   1.90    2  117    4  67.1  72.1 1017.1 -9.9 -9.999 -99.9 -99.99 -9.99
2019/08/16 05:18 EDT    1.18   1.76    2  150    3  67.3  72.1 1017.1 -9.9 -9.999 -99.9 -99.99 -9.99
2019/08/16 05:24 EDT    1.09   1.63    1  145    3  67.3  72.1 1017.1 -9.9 -9.999 -99.9 -99.99 -9.99
2019/08/16 05:30 EDT    1.00   1.52    2  150    3  67.1  72.1 1017.2 -9.9 -9.999 -99.9 -99.99 -9.99
2019/08/16 05:36 EDT    0.92   1.42    1  191    3  67.1  72.1 1017.2 -9.9 -9.999 -99.9 -99.99 -9.99
2019/08/16 05:42 EDT    0.84   1.33    2  191    3  67.1  72.1 1017.3 -9.9 -9.999 -99.9 -99.99 -9.99
2019/08/16 05:48 EDT    0.77   1.26    1  214    3  66.9  72.1 1017.4 -9.9 -9.999 -99.9 -99.99 -9.99
2019/08/16 05:54 EDT    0.70   1.21    0  206    2  66.9  72.1 1017.5 -9.9 -9.999 -99.9 -99.99 -9.99
2019/08/16 06:00 EDT    0.64   1.17    1  151    2  66.9  72.1 1017.5 -9.9 -9.999 -99.9 -99.99 -9.99
2019/08/16 06:06 EDT    0.58   1.14    0  186    2  67.1  72.1 1017.6 -9.9 -9.999 -99.9 -99.99 -9.99
2019/08/16 06:12 EDT    0.53   1.10    1  201    3  67.1  72.1 1017.6 -9.9 -9.999 -99.9 -99.99 -9.99
2019/08/16 06:18 EDT    0.47   1.07    1  180    2  67.3  72.1 1017.6 -9.9 -9.999 -99.9 -99.99 -9.99
2019/08/16 06:24 EDT    0.42   1.03    1  174    3  67.3  72.1 1017.6 -9.9 -9.999 -99.9 -99.99 -9.99
2019/08/16 06:30 EDT    0.38   1.00    2  120    4  67.3  72.1 1017.6 -9.9 -9.999 -99.9 -99.99 -9.99
2019/08/16 06:36 EDT    0.33   0.97    2  141    4  67.3  72.1 1017.4 -9.9 -9.999 -99.9 -99.99 -9.99
2019/08/16 06:42 EDT    0.29   0.94    3  123    4  67.5  72.1 1017.5 -9.9 -9.999 -99.9 -99.99 -9.99
2019/08/16 06:48 EDT    0.25   0.91    3  118    4  67.5  72.1 1017.5 -9.9 -9.999 -99.9 -99.99 -9.99
2019/08/16 06:54 EDT    0.22   0.87    3  118    5  67.3  72.3 1017.6 -9.9 -9.999 -99.9 -99.99 -9.99
2019/08/16 07:00 EDT    0.19   0.83    3  110    4  67.3  72.3 1017.6 -9.9 -9.999 -99.9 -99.99 -9.99
2019/08/16 07:06 EDT    0.17   0.80    4  111    5  67.6  72.3 1017.6 -9.9 -9.999 -99.9 -99.99 -9.99
2019/08/16 07:12 EDT    0.15   0.76    4  112    7  68.0  72.3 1017.6 -9.9 -9.999 -99.9 -99.99 -9.99
2019/08/16 07:18 EDT    0.14   0.73    5  112    8  68.2  72.3 1017.6 -9.9 -9.999 -99.9 -99.99 -9.99
2019/08/16 07:24 EDT    0.14   0.70    3  124    7  68.2  72.3 1017.5 -9.9 -9.999 -99.9 -99.99 -9.99
2019/08/16 07:30 EDT    0.15   0.69    4  108    6  68.9  72.3 1017.5 -9.9 -9.999 -99.9 -99.99 -9.99
2019/08/16 07:36 EDT    0.17   0.68    3  110    5  68.9  72.3 1017.5 -9.9 -9.999 -99.9 -99.99 -9.99
2019/08/16 07:42 EDT    0.20   0.69    3  113    6  69.3  72.3 1017.6 -9.9 -9.999 -99.9 -99.99 -9.99
2019/08/16 07:48 EDT    0.24   0.71    3  132    5  69.4  72.5 1017.7 -9.9 -9.999 -99.9 -99.99 -9.99
2019/08/16 07:54 EDT    0.30   0.74    3  117    5  70.0  72.5 1017.7 -9.9 -9.999 -99.9 -99.99 -9.99
2019/08/16 08:00 EDT    0.37   0.79    4  125    6  70.2  72.5 1017.7 -9.9 -9.999 -99.9 -99.99 -9.99
2019/08/16 08:06 EDT    0.46   0.86    4  112    7  70.5  72.5 1017.8 -9.9 -9.999 -99.9 -99.99 -9.99
2019/08/16 08:12 EDT    0.56   0.93    4   99    6  70.5  72.5 1017.8 -9.9 -9.999 -99.9 -99.99 -9.99
2019/08/16 08:18 EDT    0.68   1.03    4   99    6  70.7  72.5 1017.9 -9.9 -9.999 -99.9 -99.99 -9.99
2019/08/16 08:24 EDT    0.81   1.15    3  100    6  71.2  72.5 1017.9 -9.9 -9.999 -99.9 -99.99 -9.99
2019/08/16 08:30 EDT    0.96   1.28    4   89    5  71.8  72.5 1017.9 -9.9 -9.999 -99.9 -99.99 -9.99
2019/08/16 08:36 EDT    1.12   1.43    4   59    6  71.6  72.5 1017.8 -9.9 -9.999 -99.9 -99.99 -9.99
2019/08/16 08:42 EDT    1.30   1.59    4   55    6  71.6  72.5 1017.8 -9.9 -9.999 -99.9 -99.99 -9.99
2019/08/16 08:48 EDT    1.49   1.78    4   59    5  71.8  72.5 1017.8 -9.9 -9.999 -99.9 -99.99 -9.99
2019/08/16 08:54 EDT    1.69   2.00    5   55    6  72.0  72.5 1017.8 -9.9 -9.999 -99.9 -99.99 -9.99
2019/08/16 09:00 EDT    1.91   2.20    5   50    6  72.0  72.3 1017.7 -9.9 -9.999 -99.9 -99.99 -9.99
2019/08/16 09:06 EDT    2.13   2.44    5   44    6  72.0  72.3 1017.6 -9.9 -9.999 -99.9 -99.99 -9.99
2019/08/16 09:12 EDT    2.36   2.67    5   41    6  71.1  72.3 1017.6 -9.9 -9.999 -99.9 -99.99 -9.99
2019/08/16 09:18 EDT    2.60   2.92    6   38    7  70.9  72.1 1017.7 -9.9 -9.999 -99.9 -99.99 -9.99
2019/08/16 09:24 EDT    2.85   3.17    6   48    7  70.9  72.1 1017.8 -9.9 -9.999 -99.9 -99.99 -9.99
2019/08/16 09:30 EDT    3.10   3.43    6   44    7  71.4  72.1 1017.8 -9.9 -9.999 -99.9 -99.99 -9.99
2019/08/16 09:36 EDT    3.35   3.69    6   43    7  71.1  72.1 1017.9 -9.9 -9.999 -99.9 -99.99 -9.99
2019/08/16 09:42 EDT    3.60   3.96    6   47    8  71.1  72.1 1017.8 -9.9 -9.999 -99.9 -99.99 -9.99
2019/08/16 09:48 EDT    3.85   4.21    6   43    7  71.4  72.1 1017.8 -9.9 -9.999 -99.9 -99.99 -9.99
2019/08/16 09:54 EDT    4.10   4.50    6   57    7  72.0  72.1 1017.6 -9.9 -9.999 -99.9 -99.99 -9.99
2019/08/16 10:00 EDT    4.34   4.76    7   52    8  72.0  72.1 1017.6 -9.9 -9.999 -99.9 -99.99 -9.99
2019/08/16 10:06 EDT    4.58   5.03    7   48    8  72.3  72.1 1017.6 -9.9 -9.999 -99.9 -99.99 -9.99
2019/08/16 10:12 EDT    4.81   5.28    7   55    8  72.7  72.1 1017.5 -9.9 -9.999 -99.9 -99.99 -9.99
2019/08/16 10:18 EDT    5.03   5.52    6   51    9  72.7  72.1 1017.6 -9.9 -9.999 -99.9 -99.99 -9.99
2019/08/16 10:24 EDT    5.24   5.75    7   48    9  72.7  72.1 1017.6 -9.9 -9.999 -99.9 -99.99 -9.99
2019/08/16 10:30 EDT    5.44   5.97    7   49   10  72.7  72.1 1017.7 -9.9 -9.999 -99.9 -99.99 -9.99
2019/08/16 10:36 EDT    5.63   6.19    7   56    9  72.5  72.1 1017.7 -9.9 -9.999 -99.9 -99.99 -9.99
2019/08/16 10:42 EDT    5.81   6.39    6   63    8  72.5  72.1 1017.7 -9.9 -9.999 -99.9 -99.99 -9.99
2019/08/16 10:48 EDT    5.98   6.59    7   56    8  72.9  72.1 1017.7 -9.9 -9.999 -99.9 -99.99 -9.99
2019/08/16 10:54 EDT    6.14   6.77    6   57    7  73.2  72.1 1017.8 -9.9 -9.999 -99.9 -99.99 -9.99
2019/08/16 11:00 EDT    6.29   6.95    6   55    8  73.4  72.1 1017.9 -9.9 -9.999 -99.9 -99.99 -9.99
2019/08/16 11:06 EDT    6.42   7.11    6   55    8  73.2  72.1 1017.8 -9.9 -9.999 -99.9 -99.99 -9.99
2019/08/16 11:12 EDT    6.55   7.25    6   55    7  73.6  72.1 1017.8 -9.9 -9.999 -99.9 -99.99 -9.99
2019/08/16 11:18 EDT    6.67   7.37    6   55    7  73.6  72.1 1017.8 -9.9 -9.999 -99.9 -99.99 -9.99
2019/08/16 11:24 EDT    6.77   7.49    6   59    7  73.6  72.1 1017.8 -9.9 -9.999 -99.9 -99.99 -9.99
2019/08/16 11:30 EDT    6.87   7.60    6   66    8  73.2  72.1 1017.9 -9.9 -9.999 -99.9 -99.99 -9.99
2019/08/16 11:36 EDT    6.96   7.69    6   66    8  73.2  72.1 1017.9 -9.9 -9.999 -99.9 -99.99 -9.99
2019/08/16 11:42 EDT    7.04   7.77    5   56    7  73.8  72.1 1018.0 -9.9 -9.999 -99.9 -99.99 -9.99
2019/08/16 11:48 EDT    7.12   7.84    6   53    7  73.8  72.1 1018.0 -9.9 -9.999 -99.9 -99.99 -9.99
2019/08/16 11:54 EDT    7.19   7.90    6   48    7  73.8  72.1 1017.9 -9.9 -9.999 -99.9 -99.99 -9.99
2019/08/16 12:00 EDT    7.25   7.95    6   43    7  73.2  72.1 1018.0 -9.9 -9.999 -99.9 -99.99 -9.99
2019/08/16 12:06 EDT    7.31   7.99    7   42    7  73.2  72.1 1018.0 -9.9 -9.999 -99.9 -99.99 -9.99
2019/08/16 12:12 EDT    7.37   8.02    8   40    9  73.0  72.1 1018.0 -9.9 -9.999 -99.9 -99.99 -9.99
2019/08/16 12:18 EDT    7.41   8.05    7   47   10  72.7  72.1 1017.9 -9.9 -9.999 -99.9 -99.99 -9.99
2019/08/16 12:24 EDT    7.46   8.07    7   47   10  73.4  72.1 1018.0 -9.9 -9.999 -99.9 -99.99 -9.99
2019/08/16 12:30 EDT    7.50   8.10    8   54    9  73.8  72.1 1017.9 -9.9 -9.999 -99.9 -99.99 -9.99
2019/08/16 12:36 EDT    7.53   8.12    7   57    9  74.3  72.1 1017.9 -9.9 -9.999 -99.9 -99.99 -9.99
2019/08/16 12:42 EDT    7.56   8.15    7   59    8  74.3  72.0 1017.8 -9.9 -9.999 -99.9 -99.99 -9.99
2019/08/16 12:48 EDT    7.59   8.18    7   59    8  74.3  72.0 1017.8 -9.9 -9.999 -99.9 -99.99 -9.99
2019/08/16 12:54 EDT    7.61   8.20    6   60    7  74.5  72.0 1017.7 -9.9 -9.999 -99.9 -99.99 -9.99
2019/08/16 13:00 EDT    7.63   8.23    6   60    7  74.5  72.0 1017.7 -9.9 -9.999 -99.9 -99.99 -9.99
2019/08/16 13:06 EDT    7.64   8.24    6   54    7  74.8  72.0 1017.7 -9.9 -9.999 -99.9 -99.99 -9.99
2019/08/16 13:12 EDT    7.64   8.25    5   49    6  74.8  72.1 1017.8 -9.9 -9.999 -99.9 -99.99 -9.99
2019/08/16 13:18 EDT    7.64   8.26    5   51    7  75.2  72.1 1017.8 -9.9 -9.999 -99.9 -99.99 -9.99
2019/08/16 13:24 EDT    7.62   8.26    5   51    7  75.2  72.1 1017.8 -9.9 -9.999 -99.9 -99.99 -9.99
2019/08/16 13:30 EDT    7.60   8.26    5   54    7  75.7  72.0 1017.9 -9.9 -9.999 -99.9 -99.99 -9.99
2019/08/16 13:36 EDT    7.58   8.26    5   51    7  74.1  72.0 1017.9 -9.9 -9.999 -99.9 -99.99 -9.99
2019/08/16 13:42 EDT    7.54   8.24    7   42    7  75.0  72.0 1017.9 -9.9 -9.999 -99.9 -99.99 -9.99
2019/08/16 13:48 EDT    7.49   8.22    7   42    7  73.8  72.0 1018.0 -9.9 -9.999 -99.9 -99.99 -9.99
2019/08/16 13:54 EDT    7.43   8.19    4   49    7  74.7  72.0 1018.0 -9.9 -9.999 -99.9 -99.99 -9.99
2019/08/16 14:00 EDT    7.37   8.16    8   45    9  74.3  72.0 1018.0 -9.9 -9.999 -99.9 -99.99 -9.99
2019/08/16 14:06 EDT    7.29   8.13    7   40    9  73.4  72.0 1018.1 -9.9 -9.999 -99.9 -99.99 -9.99
2019/08/16 14:12 EDT    7.20   8.08    5   48    9  73.9  72.0 1018.1 -9.9 -9.999 -99.9 -99.99 -9.99
2019/08/16 14:18 EDT    7.10   8.02    7   56    8  74.5  72.0 1018.1 -9.9 -9.999 -99.9 -99.99 -9.99
2019/08/16 14:24 EDT    6.98   7.96    6   61    8  74.5  72.0 1018.1 -9.9 -9.999 -99.9 -99.99 -9.99
2019/08/16 14:30 EDT    6.86   7.88    6   61    8  74.5  72.0 1017.9 -9.9 -9.999 -99.9 -99.99 -9.99
2019/08/16 14:36 EDT    6.72   7.78    5   56    6  75.6  72.0 1017.8 -9.9 -9.999 -99.9 -99.99 -9.99
2019/08/16 14:42 EDT    6.58   7.66    5   57    6  75.6  72.0 1017.8 -9.9 -9.999 -99.9 -99.99 -9.99
2019/08/16 14:48 EDT    6.42   7.54    5   55    6  76.1  72.0 1017.8 -9.9 -9.999 -99.9 -99.99 -9.99
2019/08/16 14:54 EDT    6.25   7.40    6   57    7  75.9  72.0 1017.8 -9.9 -9.999 -99.9 -99.99 -9.99
2019/08/16 15:00 EDT    6.08   7.24    6   57    7  75.4  72.0 1017.8 -9.9 -9.999 -99.9 -99.99 -9.99
2019/08/16 15:06 EDT    5.89   7.07    6   49    7  75.6  72.0 1017.8 -9.9 -9.999 -99.9 -99.99 -9.99
2019/08/16 15:12 EDT    5.70   6.87    6   50    7  75.4  72.0 1017.8 -9.9 -9.999 -99.9 -99.99 -9.99
2019/08/16 15:18 EDT    5.50   6.67    6   50    7  75.4  72.0 1017.7 -9.9 -9.999 -99.9 -99.99 -9.99
2019/08/16 15:24 EDT    5.29   6.45    5   57    6  75.6  72.0 1017.6 -9.9 -9.999 -99.9 -99.99 -9.99
2019/08/16 15:30 EDT    5.08   6.24    4   64    6  76.1  72.0 1017.5 -9.9 -9.999 -99.9 -99.99 -9.99
2019/08/16 15:36 EDT    4.87   6.01    4   68    5  76.1  72.0 1017.5 -9.9 -9.999 -99.9 -99.99 -9.99
2019/08/16 15:42 EDT    4.65   5.79    4   68    5  76.3  72.0 1017.4 -9.9 -9.999 -99.9 -99.99 -9.99
2019/08/16 15:48 EDT    4.43   5.56    4   66    6  75.6  72.0 1017.4 -9.9 -9.999 -99.9 -99.99 -9.99
2019/08/16 15:54 EDT    4.21   5.31    3   80    5  75.4  72.0 1017.3 -9.9 -9.999 -99.9 -99.99 -9.99
2019/08/16 16:00 EDT    3.99   5.09    3   77    5  76.3  72.0 1017.3 -9.9 -9.999 -99.9 -99.99 -9.99
2019/08/16 16:06 EDT    3.77   4.86    4   74    4  77.0  72.0 1017.2 -9.9 -9.999 -99.9 -99.99 -9.99
2019/08/16 16:12 EDT    3.56   4.61    4   72    5  77.0  72.0 1017.2 -9.9 -9.999 -99.9 -99.99 -9.99
2019/08/16 16:18 EDT    3.35   4.38    4   59    4  77.0  72.0 1017.1 -9.9 -9.999 -99.9 -99.99 -9.99
2019/08/16 16:24 EDT    3.14   4.16    3   68    4  77.0  72.0 1017.1 -9.9 -9.999 -99.9 -99.99 -9.99
2019/08/16 16:30 EDT    2.94   3.93    2   64    4  77.0  72.1 1017.1 -9.9 -9.999 -99.9 -99.99 -9.99
2019/08/16 16:36 EDT    2.75   3.70    2  138    4  77.5  72.1 1017.1 -9.9 -9.999 -99.9 -99.99 -9.99
2019/08/16 16:42 EDT    2.57   3.47    3  188    5  77.7  72.1 1017.1 -9.9 -9.999 -99.9 -99.99 -9.99
2019/08/16 16:48 EDT    2.39   3.27    4  189    6  78.1  72.3 1017.1 -9.9 -9.999 -99.9 -99.99 -9.99
2019/08/16 16:54 EDT    2.23   3.06    5  190    7  78.1  72.3 1017.1 -9.9 -9.999 -99.9 -99.99 -9.99
2019/08/16 17:00 EDT    2.07   2.85    7  201    9  77.9  72.3 1017.1 -9.9 -9.999 -99.9 -99.99 -9.99
2019/08/16 17:06 EDT    1.93   2.66    5  203    7  77.5  72.3 1017.0 -9.9 -9.999 -99.9 -99.99 -9.99
2019/08/16 17:12 EDT    1.79   2.49    7  205    9  77.9  72.3 1017.0 -9.9 -9.999 -99.9 -99.99 -9.99
2019/08/16 17:18 EDT    1.66   2.30    8  213    9  77.2  72.3 1016.9 -9.9 -9.999 -99.9 -99.99 -9.99
2019/08/16 17:24 EDT    1.55   2.15    7  216    9  77.4  72.3 1016.8 -9.9 -9.999 -99.9 -99.99 -9.99
2019/08/16 17:30 EDT    1.44   1.99    7  204    8  77.5  72.3 1016.8 -9.9 -9.999 -99.9 -99.99 -9.99
2019/08/16 17:36 EDT    1.34   1.85    6  214    8  77.9  72.3 1016.7 -9.9 -9.999 -99.9 -99.99 -9.99
2019/08/16 17:42 EDT    1.25   1.72    6  211    7  77.2  72.3 1016.7 -9.9 -9.999 -99.9 -99.99 -9.99
2019/08/16 17:48 EDT    1.17   1.60    5  203    8  77.4  72.3 1016.5 -9.9 -9.999 -99.9 -99.99 -9.99
2019/08/16 17:54 EDT    1.10   1.50    5  204    6  78.3  72.5 1016.5 -9.9 -9.999 -99.9 -99.99 -9.99
2019/08/16 18:00 EDT    1.03   1.44    6  216    7  78.3  72.5 1016.5 -9.9 -9.999 -99.9 -99.99 -9.99
2019/08/16 18:06 EDT    0.97   1.36    6  216    7  77.9  72.5 1016.4 -9.9 -9.999 -99.9 -99.99 -9.99
2019/08/16 18:12 EDT    0.92   1.32    6  196    8  78.4  72.5 1016.3 -9.9 -9.999 -99.9 -99.99 -9.99
2019/08/16 18:18 EDT    0.87   1.27    8  203   10  78.3  72.5 1016.4 -9.9 -9.999 -99.9 -99.99 -9.99
2019/08/16 18:24 EDT    0.83   1.24    7  206    9  77.5  72.5 1016.3 -9.9 -9.999 -99.9 -99.99 -9.99
2019/08/16 18:30 EDT    0.79   1.24    6  207    8  77.5  72.5 1016.3 -9.9 -9.999 -99.9 -99.99 -9.99
2019/08/16 18:36 EDT    0.75   1.21    7  208    9  77.4  72.7 1016.4 -9.9 -9.999 -99.9 -99.99 -9.99
2019/08/16 18:42 EDT    0.72   1.20    8  202    9  76.6  72.7 1016.3 -9.9 -9.999 -99.9 -99.99 -9.99
2019/08/16 18:48 EDT    0.69   1.19    7  198   11  77.5  72.7 1016.2 -9.9 -9.999 -99.9 -99.99 -9.99
2019/08/16 18:54 EDT    0.66   1.18    5  196    9  77.7  72.7 1016.3 -9.9 -9.999 -99.9 -99.99 -9.99
2019/08/16 19:00 EDT    0.64   1.19    5  196    8  77.7  72.9 1016.2 -9.9 -9.999 -99.9 -99.99 -9.99
2019/08/16 19:06 EDT    0.62   1.17    6  198    7  77.5  73.0 1016.2 -9.9 -9.999 -99.9 -99.99 -9.99
2019/08/16 19:12 EDT    0.60   1.15    5  195    8  77.4  73.0 1016.3 -9.9 -9.999 -99.9 -99.99 -9.99
2019/08/16 19:18 EDT    0.59   1.13    4  202    5  77.4  73.0 1016.3 -9.9 -9.999 -99.9 -99.99 -9.99
2019/08/16 19:24 EDT    0.58   1.10    5  198    7  77.2  73.0 1016.4 -9.9 -9.999 -99.9 -99.99 -9.99
2019/08/16 19:30 EDT    0.57   1.09    6  202    7  77.0  73.0 1016.5 -9.9 -9.999 -99.9 -99.99 -9.99
2019/08/16 19:36 EDT    0.58   1.07    3  154    7  76.5  73.2 1016.5 -9.9 -9.999 -99.9 -99.99 -9.99
2019/08/16 19:42 EDT    0.58   1.07    2  190    5  76.6  73.2 1016.5 -9.9 -9.999 -99.9 -99.99 -9.99
2019/08/16 19:48 EDT    0.60   1.07    2  180    3  76.5  73.2 1016.5 -9.9 -9.999 -99.9 -99.99 -9.99
2019/08/16 19:54 EDT    0.63   1.07    5  190    6  76.1  73.2 1016.5 -9.9 -9.999 -99.9 -99.99 -9.99
2019/08/16 20:00 EDT    0.66   1.09    4  178    6  75.9  73.2 1016.6 -9.9 -9.999 -99.9 -99.99 -9.99
2019/08/16 20:06 EDT    0.71   1.13    3  172    4  75.6  73.4 1016.6 -9.9 -9.999 -99.9 -99.99 -9.99
2019/08/16 20:12 EDT    0.77   1.17    4  177    6  75.4  73.4 1016.6 -9.9 -9.999 -99.9 -99.99 -9.99
2019/08/16 20:18 EDT    0.84   1.23    5  188    7  75.0  73.4 1016.7 -9.9 -9.999 -99.9 -99.99 -9.99
2019/08/16 20:24 EDT    0.92   1.28    8  201    9  74.7  73.4 1016.7 -9.9 -9.999 -99.9 -99.99 -9.99
2019/08/16 20:30 EDT    1.02   1.36    5  192   10  74.1  73.4 1016.9 -9.9 -9.999 -99.9 -99.99 -9.99
2019/08/16 20:36 EDT    1.13   1.46    4  188    7  74.1  73.4 1016.9 -9.9 -9.999 -99.9 -99.99 -9.99
2019/08/16 20:42 EDT    1.26   1.56    4  197    5  73.9  73.4 1016.8 -9.9 -9.999 -99.9 -99.99 -9.99
2019/08/16 20:48 EDT    1.40   1.69    4  190    6  73.8  73.2 1016.8 -9.9 -9.999 -99.9 -99.99 -9.99
2019/08/16 20:54 EDT    1.56   1.83    7  184    9  73.8  73.2 1016.8 -9.9 -9.999 -99.9 -99.99 -9.99
2019/08/16 21:00 EDT    1.73   1.99    6  193    8  73.6  73.0 1016.7 -9.9 -9.999 -99.9 -99.99 -9.99
2019/08/16 21:06 EDT    1.91   2.16    5  195    9  73.4  72.9 1016.7 -9.9 -9.999 -99.9 -99.99 -9.99
2019/08/16 21:12 EDT    2.11   2.35    4  188    7  73.4  72.9 1016.8 -9.9 -9.999 -99.9 -99.99 -9.99
2019/08/16 21:18 EDT    2.31   2.56    3  187    7  73.2  72.7 1016.9 -9.9 -9.999 -99.9 -99.99 -9.99
2019/08/16 21:24 EDT    2.53   2.79    4  193    5  73.2  72.7 1016.9 -9.9 -9.999 -99.9 -99.99 -9.99
2019/08/16 21:30 EDT    2.76   3.03    2  195    5  73.2  72.7 1016.9 -9.9 -9.999 -99.9 -99.99 -9.99
2019/08/16 21:36 EDT    2.99   3.28    2  177    4  73.0  72.7 1017.0 -9.9 -9.999 -99.9 -99.99 -9.99
2019/08/16 21:42 EDT    3.23   3.53    2  189    2  73.0  72.7 1017.0 -9.9 -9.999 -99.9 -99.99 -9.99
2019/08/16 21:48 EDT    3.48   3.79    2  193    3  72.9  72.7 1017.1 -9.9 -9.999 -99.9 -99.99 -9.99
2019/08/16 21:54 EDT    3.73   4.04    1  199    2  72.9  72.7 1017.2 -9.9 -9.999 -99.9 -99.99 -9.99
2019/08/16 22:00 EDT    3.98   4.29    2  204    3  72.9  72.7 1017.3 -9.9 -9.999 -99.9 -99.99 -9.99
2019/08/16 22:06 EDT    4.23   4.53    4  210    4  72.9  72.7 1017.3 -9.9 -9.999 -99.9 -99.99 -9.99
2019/08/16 22:12 EDT    4.47   4.76    3  189    5  72.7  72.7 1017.4 -9.9 -9.999 -99.9 -99.99 -9.99
2019/08/16 22:18 EDT    4.71   4.99    3  178    4  72.5  72.7 1017.4 -9.9 -9.999 -99.9 -99.99 -9.99
2019/08/16 22:24 EDT    4.95   5.24    3  184    5  72.5  72.7 1017.4 -9.9 -9.999 -99.9 -99.99 -9.99
2019/08/16 22:30 EDT    5.18   5.48    3  174    6  72.5  72.7 1017.6 -9.9 -9.999 -99.9 -99.99 -9.99
2019/08/16 22:36 EDT    5.40   5.71    3  196    5  72.5  72.7 1017.8 -9.9 -9.999 -99.9 -99.99 -9.99
2019/08/16 22:42 EDT    5.61   5.93    4  191    6  72.5  72.7 1017.8 -9.9 -9.999 -99.9 -99.99 -9.99
2019/08/16 22:48 EDT    5.82   6.14    4  179    5  72.7  72.5 1017.8 -9.9 -9.999 -99.9 -99.99 -9.99
2019/08/16 22:54 EDT    6.01   6.35    4  179    5  72.7  72.5 1017.8 -9.9 -9.999 -99.9 -99.99 -9.99
2019/08/16 23:00 EDT    6.19   6.55    3  184    5  72.5  72.5 1017.8 -9.9 -9.999 -99.9 -99.99 -9.99
2019/08/16 23:06 EDT    6.36   6.74    2  185    4  72.5  72.5 1017.8 -9.9 -9.999 -99.9 -99.99 -9.99
2019/08/16 23:12 EDT    6.51   6.91    2  176    3  72.7  72.5 1017.9 -9.9 -9.999 -99.9 -99.99 -9.99
2019/08/16 23:18 EDT    6.66   7.08    2  176    3  72.7  72.5 1018.0 -9.9 -9.999 -99.9 -99.99 -9.99
2019/08/16 23:24 EDT    6.79   7.23    2  174    4  72.7  72.5 1018.0 -9.9 -9.999 -99.9 -99.99 -9.99
2019/08/16 23:30 EDT    6.91 -99.99 -999 -999 -999 -99.9 -99.9 -999.9 -9.9 -9.999 -99.9 -99.99 -9.99
2019/08/16 23:36 EDT    7.02 -99.99 -999 -999 -999 -99.9 -99.9 -999.9 -9.9 -9.999 -99.9 -99.99 -9.99
2019/08/16 23:42 EDT    7.12 -99.99 -999 -999 -999 -99.9 -99.9 -999.9 -9.9 -9.999 -99.9 -99.99 -9.99
2019/08/16 23:48 EDT    7.21   7.76    2  167    2  72.9  72.5 1017.9 -9.9 -9.999 -99.9 -99.99 -9.99
2019/08/16 23:54 EDT    7.29   7.87    2  194    4  73.0  72.5 1017.7 -9.9 -9.999 -99.9 -99.99 -9.99
2019/08/17 00:00 EDT    7.36   7.97    3  175    4  73.0  72.5 1017.7 -9.9 -9.999 -99.9 -99.99 -9.99
2019/08/17 00:06 EDT    7.43   8.06    1  168    2  73.0  72.5 1017.7 -9.9 -9.999 -99.9 -99.99 -9.99
2019/08/17 00:12 EDT    7.48   8.14    0  177    2  73.0  72.5 1017.7 -9.9 -9.999 -99.9 -99.99 -9.99
2019/08/17 00:18 EDT    7.53   8.20    0  162    3  73.0  72.5 1017.7 -9.9 -9.999 -99.9 -99.99 -9.99
2019/08/17 00:24 EDT    7.58   8.26    1   73    3  73.0  72.5 1017.8 -9.9 -9.999 -99.9 -99.99 -9.99
2019/08/17 00:30 EDT    7.61   8.30    2  104    4  73.0  72.5 1017.8 -9.9 -9.999 -99.9 -99.99 -9.99
2019/08/17 00:36 EDT    7.65   8.34    3   72    4  73.0  72.5 1017.8 -9.9 -9.999 -99.9 -99.99 -9.99
2019/08/17 00:42 EDT    7.67   8.36    1   64    4  73.0  72.5 1017.8 -9.9 -9.999 -99.9 -99.99 -9.99
2019/08/17 00:48 EDT    7.70   8.38    2   63    3  72.9  72.5 1017.8 -9.9 -9.999 -99.9 -99.99 -9.99
2019/08/17 00:54 EDT    7.72   8.40    2   74    3  72.9  72.5 1017.7 -9.9 -9.999 -99.9 -99.99 -9.99
2019/08/17 01:00 EDT    7.73   8.41    3   58    3  72.9  72.5 1017.7 -9.9 -9.999 -99.9 -99.99 -9.99
2019/08/17 01:06 EDT    7.74   8.42    3   56    4  72.7  72.5 1017.7 -9.9 -9.999 -99.9 -99.99 -9.99
2019/08/17 01:12 EDT    7.75   8.43    2   69    3  72.7  72.5 1017.7 -9.9 -9.999 -99.9 -99.99 -9.99
2019/08/17 01:18 EDT    7.75   8.44    1  107    3  72.5  72.5 1017.7 -9.9 -9.999 -99.9 -99.99 -9.99
2019/08/17 01:24 EDT    7.74   8.44    2  106    4  72.9  72.5 1017.6 -9.9 -9.999 -99.9 -99.99 -9.99
2019/08/17 01:30 EDT    7.73   8.44    1  100    2  72.9  72.5 1017.6 -9.9 -9.999 -99.9 -99.99 -9.99
2019/08/17 01:36 EDT    7.71   8.43    4   56    5  72.9  72.5 1017.6 -9.9 -9.999 -99.9 -99.99 -9.99
2019/08/17 01:42 EDT    7.69   8.42    3   49    5  72.7  72.5 1017.5 -9.9 -9.999 -99.9 -99.99 -9.99
2019/08/17 01:48 EDT    7.66   8.40    4   55    4  72.5  72.5 1017.6 -9.9 -9.999 -99.9 -99.99 -9.99
2019/08/17 01:54 EDT    7.62   8.38    4   84    4  72.3  72.5 1017.6 -9.9 -9.999 -99.9 -99.99 -9.99
2019/08/17 02:00 EDT    7.57   8.35    3   76    4  72.3  72.5 1017.5 -9.9 -9.999 -99.9 -99.99 -9.99
2019/08/17 02:06 EDT    7.52   8.31    3   63    4  72.3  72.5 1017.5 -9.9 -9.999 -99.9 -99.99 -9.99
2019/08/17 02:12 EDT    7.45   8.27    4   56    4  72.3  72.5 1017.5 -9.9 -9.999 -99.9 -99.99 -9.99
2019/08/17 02:18 EDT    7.38   8.23    3   50    4  72.3  72.5 1017.5 -9.9 -9.999 -99.9 -99.99 -9.99
2019/08/17 02:24 EDT    7.30   8.17    3   53    4  72.3  72.5 1017.6 -9.9 -9.999 -99.9 -99.99 -9.99
2019/08/17 02:30 EDT    7.20   8.10    2   48    3  72.5  72.5 1017.6 -9.9 -9.999 -99.9 -99.99 -9.99
2019/08/17 02:36 EDT    7.10   8.02    2  106    4  72.5  72.5 1017.5 -9.9 -9.999 -99.9 -99.99 -9.99
2019/08/17 02:42 EDT    6.98   7.93    3  111    5  72.5  72.5 1017.5 -9.9 -9.999 -99.9 -99.99 -9.99
2019/08/17 02:48 EDT    6.85   7.84    3  106    5  72.5  72.5 1017.5 -9.9 -9.999 -99.9 -99.99 -9.99
2019/08/17 02:54 EDT    6.71   7.72    3  106    5  72.5  72.5 1017.6 -9.9 -9.999 -99.9 -99.99 -9.99
2019/08/17 03:00 EDT    6.56   7.59    2   92    3  72.5  72.5 1017.6 -9.9 -9.999 -99.9 -99.99 -9.99
2019/08/17 03:06 EDT    6.41   7.45    3   57    3  72.5  72.5 1017.5 -9.9 -9.999 -99.9 -99.99 -9.99
2019/08/17 03:12 EDT    6.24   7.29    3   77    4  72.5  72.5 1017.5 -9.9 -9.999 -99.9 -99.99 -9.99
2019/08/17 03:18 EDT    6.06   7.12    4   62    5  72.3  72.5 1017.5 -9.9 -9.999 -99.9 -99.99 -9.99
2019/08/17 03:24 EDT    5.87   6.93    4   74    5  72.1  72.5 1017.5 -9.9 -9.999 -99.9 -99.99 -9.99
2019/08/17 03:30 EDT    5.67   6.72    3   80    6  72.0  72.5 1017.5 -9.9 -9.999 -99.9 -99.99 -9.99
2019/08/17 03:36 EDT    5.47   6.51    3   79    5  72.0  72.5 1017.4 -9.9 -9.999 -99.9 -99.99 -9.99
2019/08/17 03:42 EDT    5.26   6.30    4   72    6  72.0  72.5 1017.4 -9.9 -9.999 -99.9 -99.99 -9.99
2019/08/17 03:48 EDT    5.04   6.07    4   78    6  72.1  72.5 1017.3 -9.9 -9.999 -99.9 -99.99 -9.99
2019/08/17 03:54 EDT    4.82   5.85    3   78    5  72.0  72.3 1017.3 -9.9 -9.999 -99.9 -99.99 -9.99
2019/08/17 04:00 EDT    4.59   5.63    3   77    5  72.1  72.3 1017.3 -9.9 -9.999 -99.9 -99.99 -9.99
2019/08/17 04:06 EDT    4.37   5.40    3   72    5  72.1  72.3 1017.2 -9.9 -9.999 -99.9 -99.99 -9.99
2019/08/17 04:12 EDT    4.14   5.17    4   71    5  72.1  72.3 1017.2 -9.9 -9.999 -99.9 -99.99 -9.99
2019/08/17 04:18 EDT    3.91   4.93    4   75    4  72.0  72.3 1017.0 -9.9 -9.999 -99.9 -99.99 -9.99
2019/08/17 04:24 EDT    3.68   4.69    3   92    4  72.0  72.3 1017.0 -9.9 -9.999 -99.9 -99.99 -9.99
2019/08/17 04:30 EDT    3.46   4.46    3  103    4  72.0  72.3 1017.0 -9.9 -9.999 -99.9 -99.99 -9.99
2019/08/17 04:36 EDT    3.23   4.23    2   77    4  72.0  72.3 1016.9 -9.9 -9.999 -99.9 -99.99 -9.99
2019/08/17 04:42 EDT    3.02   4.00    4   66    5  72.0  72.3 1016.8 -9.9 -9.999 -99.9 -99.99 -9.99
2019/08/17 04:48 EDT    2.80   3.77    4   46    4  71.8  72.3 1016.8 -9.9 -9.999 -99.9 -99.99 -9.99
2019/08/17 04:54 EDT    2.60   3.55    4   46    6  71.8  72.3 1016.8 -9.9 -9.999 -99.9 -99.99 -9.99
2019/08/17 05:00 EDT    2.40   3.34    3   52    5  71.8  72.3 1016.9 -9.9 -9.999 -99.9 -99.99 -9.99
2019/08/17 05:06 EDT    2.21   3.12    3   79    5  71.8  72.5 1016.9 -9.9 -9.999 -99.9 -99.99 -9.99
2019/08/17 05:12 EDT    2.03   2.92    3   85    5  71.8  72.5 1016.9 -9.9 -9.999 -99.9 -99.99 -9.99
2019/08/17 05:18 EDT    1.86   2.72    3   82    5  71.8  72.5 1016.9 -9.9 -9.999 -99.9 -99.99 -9.99
2019/08/17 05:24 EDT    1.70   2.53    3   72    5  71.8  72.5 1016.9 -9.9 -9.999 -99.9 -99.99 -9.99
2019/08/17 05:30 EDT    1.55   2.34    4   71    5  71.8  72.5 1017.0 -9.9 -9.999 -99.9 -99.99 -9.99
2019/08/17 05:36 EDT    1.42   2.16    4   84    5  71.8  72.5 1017.1 -9.9 -9.999 -99.9 -99.99 -9.99
2019/08/17 05:42 EDT    1.29   2.00    4  108    6  71.8  72.5 1017.1 -9.9 -9.999 -99.9 -99.99 -9.99
2019/08/17 05:48 EDT    1.17   1.84    3   93    6  71.8  72.5 1017.2 -9.9 -9.999 -99.9 -99.99 -9.99
2019/08/17 05:54 EDT    1.06   1.70    4   91    5  71.8  72.5 1017.3 -9.9 -9.999 -99.9 -99.99 -9.99
2019/08/17 06:00 EDT    0.97   1.58    4   79    6  71.8  72.5 1017.3 -9.9 -9.999 -99.9 -99.99 -9.99
2019/08/17 06:06 EDT    0.88   1.46    3  102    6  71.6  72.5 1017.2 -9.9 -9.999 -99.9 -99.99 -9.99
2019/08/17 06:12 EDT    0.80   1.37    5   95    6  71.6  72.5 1017.2 -9.9 -9.999 -99.9 -99.99 -9.99
2019/08/17 06:18 EDT    0.73   1.28    3  101    6  71.6  72.5 1017.2 -9.9 -9.999 -99.9 -99.99 -9.99
2019/08/17 06:24 EDT    0.67   1.22    2  118    4  71.6  72.5 1017.2 -9.9 -9.999 -99.9 -99.99 -9.99
2019/08/17 06:30 EDT    0.62   1.18    3   87    4  71.6  72.5 1017.2 -9.9 -9.999 -99.9 -99.99 -9.99
2019/08/17 06:36 EDT    0.57   1.15    3  109    5  71.6  72.5 1017.1 -9.9 -9.999 -99.9 -99.99 -9.99
2019/08/17 06:42 EDT    0.53   1.13    4  101    6  71.6  72.5 1017.0 -9.9 -9.999 -99.9 -99.99 -9.99
2019/08/17 06:48 EDT    0.49   1.13    2   74    5  71.6  72.5 1017.0 -9.9 -9.999 -99.9 -99.99 -9.99
2019/08/17 06:54 EDT    0.46   1.13    2  149    5  71.6  72.5 1016.9 -9.9 -9.999 -99.9 -99.99 -9.99
2019/08/17 07:00 EDT    0.43   1.14    1  316    2  71.8  72.5 1016.8 -9.9 -9.999 -99.9 -99.99 -9.99
2019/08/17 07:06 EDT    0.40   1.13    2   12    3  71.8  72.5 1016.8 -9.9 -9.999 -99.9 -99.99 -9.99
2019/08/17 07:12 EDT    0.38   1.13    2  105    3  71.8  72.5 1016.9 -9.9 -9.999 -99.9 -99.99 -9.99
2019/08/17 07:18 EDT    0.36   1.13    3   95    5  72.0  72.7 1017.1 -9.9 -9.999 -99.9 -99.99 -9.99
2019/08/17 07:24 EDT    0.35   1.11    3  116    5  71.8  72.7 1017.1 -9.9 -9.999 -99.9 -99.99 -9.99
2019/08/17 07:30 EDT    0.34   1.10    3  135    5  71.8  72.7 1017.1 -9.9 -9.999 -99.9 -99.99 -9.99
2019/08/17 07:36 EDT    0.33   1.07    1  164    4  72.0  72.7 1017.1 -9.9 -9.999 -99.9 -99.99 -9.99
2019/08/17 07:42 EDT    0.33   1.04    1  164    4  72.1  72.7 1017.2 -9.9 -9.999 -99.9 -99.99 -9.99
2019/08/17 07:48 EDT    0.33   1.01    3  154    4  72.3  72.7 1017.3 -9.9 -9.999 -99.9 -99.99 -9.99
2019/08/17 07:54 EDT    0.33   0.98    1  209    2  72.3  72.7 1017.3 -9.9 -9.999 -99.9 -99.99 -9.99
2019/08/17 08:00 EDT    0.35   0.96    3   64    4  72.5  72.7 1017.3 -9.9 -9.999 -99.9 -99.99 -9.99
2019/08/17 08:06 EDT    0.36   0.93    4   42    5  72.5  72.9 1017.2 -9.9 -9.999 -99.9 -99.99 -9.99
2019/08/17 08:12 EDT    0.39   0.92    3   70    5  72.5  72.9 1017.2 -9.9 -9.999 -99.9 -99.99 -9.99
2019/08/17 08:18 EDT    0.43   0.91    3   66    5  72.7  72.9 1017.3 -9.9 -9.999 -99.9 -99.99 -9.99
2019/08/17 08:24 EDT    0.47   0.92    4   46    5  72.7  72.9 1017.3 -9.9 -9.999 -99.9 -99.99 -9.99
2019/08/17 08:30 EDT    0.53   0.94    5   56    6  72.5  72.9 1017.3 -9.9 -9.999 -99.9 -99.99 -9.99
2019/08/17 08:36 EDT    0.59   0.96    5   71    8  72.9  72.9 1017.2 -9.9 -9.999 -99.9 -99.99 -9.99
2019/08/17 08:42 EDT    0.67   1.01    3   79    6  73.0  72.9 1017.3 -9.9 -9.999 -99.9 -99.99 -9.99
2019/08/17 08:48 EDT    0.76   1.08    3  124    5  73.0  72.9 1017.3 -9.9 -9.999 -99.9 -99.99 -9.99
2019/08/17 08:54 EDT    0.87   1.16    4  103    5  73.2  72.9 1017.3 -9.9 -9.999 -99.9 -99.99 -9.99
2019/08/17 09:00 EDT    0.98   1.26    2  117    5  73.2  72.7 1017.4 -9.9 -9.999 -99.9 -99.99 -9.99
2019/08/17 09:06 EDT    1.12   1.38    4   78    6  73.8  72.7 1017.5 -9.9 -9.999 -99.9 -99.99 -9.99
2019/08/17 09:12 EDT    1.26   1.52    2   73    5  73.9  72.7 1017.5 -9.9 -9.999 -99.9 -99.99 -9.99
2019/08/17 09:18 EDT    1.42   1.68    1  105    5  74.3  72.7 1017.5 -9.9 -9.999 -99.9 -99.99 -9.99
2019/08/17 09:24 EDT    1.60   1.84    4   64    7  74.5  72.7 1017.5 -9.9 -9.999 -99.9 -99.99 -9.99
2019/08/17 09:30 EDT    1.78   2.04    6   62    8  74.8  72.7 1017.5 -9.9 -9.999 -99.9 -99.99 -9.99
2019/08/17 09:36 EDT    1.98   2.24    5   63    7  74.7  72.7 1017.5 -9.9 -9.999 -99.9 -99.99 -9.99
2019/08/17 09:42 EDT    2.19   2.46    6   66    8  74.8  72.5 1017.6 -9.9 -9.999 -99.9 -99.99 -9.99
2019/08/17 09:48 EDT    2.41   2.69    3   69    7  74.8  72.5 1017.5 -9.9 -9.999 -99.9 -99.99 -9.99
2019/08/17 09:54 EDT    2.64   2.92    5   72    8  75.4  72.5 1017.5 -9.9 -9.999 -99.9 -99.99 -9.99
2019/08/17 10:00 EDT    2.88   3.19    4   62    7  75.2  72.5 1017.4 -9.9 -9.999 -99.9 -99.99 -9.99
2019/08/17 10:06 EDT    3.12   3.45    4   58    6  75.0  72.5 1017.5 -9.9 -9.999 -99.9 -99.99 -9.99
2019/08/17 10:12 EDT    3.37   3.71    5   75    7  74.7  72.5 1017.4 -9.9 -9.999 -99.9 -99.99 -9.99
2019/08/17 10:18 EDT    3.62   3.99    7   43    8  75.2  72.5 1017.5 -9.9 -9.999 -99.9 -99.99 -9.99
2019/08/17 10:24 EDT    3.87   4.27    7   52    9  74.5  72.5 1017.6 -9.9 -9.999 -99.9 -99.99 -9.99
2019/08/17 10:30 EDT    4.12   4.54    6   56    8  74.5  72.5 1017.6 -9.9 -9.999 -99.9 -99.99 -9.99
2019/08/17 10:36 EDT    4.37   4.81    5   55    7  74.7  72.5 1017.8 -9.9 -9.999 -99.9 -99.99 -9.99
2019/08/17 10:42 EDT    4.61   5.08    5   51    6  74.8  72.5 1017.9 -9.9 -9.999 -99.9 -99.99 -9.99
2019/08/17 10:48 EDT    4.85   5.34    7   43    8  73.9  72.5 1018.0 -9.9 -9.999 -99.9 -99.99 -9.99
2019/08/17 10:54 EDT    5.08   5.59    6   51    8  73.9  72.5 1018.0 -9.9 -9.999 -99.9 -99.99 -9.99
2019/08/17 11:00 EDT    5.30   5.84    7   53    8  74.7  72.5 1017.9 -9.9 -9.999 -99.9 -99.99 -9.99
2019/08/17 11:06 EDT    5.51   6.06   10   54   11  74.8  72.5 1017.8 -9.9 -9.999 -99.9 -99.99 -9.99
2019/08/17 11:12 EDT    5.71   6.30    9   53   11  74.7  72.5 1017.7 -9.9 -9.999 -99.9 -99.99 -9.99
2019/08/17 11:18 EDT    5.91   6.51    7   54    9  74.7  72.5 1017.7 -9.9 -9.999 -99.9 -99.99 -9.99
2019/08/17 11:24 EDT    6.08   6.71    9   56   10  75.0  72.5 1017.7 -9.9 -9.999 -99.9 -99.99 -9.99
2019/08/17 11:30 EDT    6.25   6.90    8   53    9  74.8  72.5 1017.7 -9.9 -9.999 -99.9 -99.99 -9.99
2019/08/17 11:36 EDT    6.41   7.08    7   57   10  75.9  72.5 1017.6 -9.9 -9.999 -99.9 -99.99 -9.99
2019/08/17 11:42 EDT    6.55   7.24    7   57   10  75.9  72.5 1017.6 -9.9 -9.999 -99.9 -99.99 -9.99
2019/08/17 11:48 EDT    6.68   7.42   10   47   12  75.7  72.5 1017.6 -9.9 -9.999 -99.9 -99.99 -9.99
2019/08/17 11:54 EDT    6.80   7.56    9   56   12  75.2  72.5 1017.6 -9.9 -9.999 -99.9 -99.99 -9.99
2019/08/17 12:00 EDT    6.91   7.67    8   55   10  75.2  72.5 1017.6 -9.9 -9.999 -99.9 -99.99 -9.99
2019/08/17 12:06 EDT    7.00   7.79    7   50    9  75.6  72.7 1017.6 -9.9 -9.999 -99.9 -99.99 -9.99
2019/08/17 12:12 EDT    7.09   7.88    8   51   10  75.2  72.7 1017.5 -9.9 -9.999 -99.9 -99.99 -9.99
2019/08/17 12:18 EDT    7.17   7.97    8   51   10  75.2  72.7 1017.5 -9.9 -9.999 -99.9 -99.99 -9.99
2019/08/17 12:24 EDT    7.24   8.05   10   51   11  75.2  72.7 1017.4 -9.9 -9.999 -99.9 -99.99 -9.99
2019/08/17 12:30 EDT    7.30   8.12    9   48   11  75.4  72.7 1017.4 -9.9 -9.999 -99.9 -99.99 -9.99
2019/08/17 12:36 EDT    7.35   8.18   10   52   11  75.6  72.7 1017.3 -9.9 -9.999 -99.9 -99.99 -9.99
2019/08/17 12:42 EDT    7.40   8.23    9   48   10  75.9  72.5 1017.2 -9.9 -9.999 -99.9 -99.99 -9.99
2019/08/17 12:48 EDT    7.44   8.27    9   48   10  75.9  72.5 1017.2 -9.9 -9.999 -99.9 -99.99 -9.99
2019/08/17 12:54 EDT    7.47   8.29    9   51   10  76.1  72.5 1017.2 -9.9 -9.999 -99.9 -99.99 -9.99
2019/08/17 13:00 EDT    7.50   8.30    9   51   10  76.1  72.5 1017.1 -9.9 -9.999 -99.9 -99.99 -9.99
2019/08/17 13:06 EDT    7.53   8.31    8   50   10  74.8  72.5 1017.1 -9.9 -9.999 -99.9 -99.99 -9.99
2019/08/17 13:12 EDT    7.55   8.32    6   49    9  75.9  72.5 1017.1 -9.9 -9.999 -99.9 -99.99 -9.99
2019/08/17 13:18 EDT    7.56   8.32    6   49    9  75.9  72.5 1017.1 -9.9 -9.999 -99.9 -99.99 -9.99
2019/08/17 13:24 EDT    7.57   8.33    8   47    9  75.4  72.5 1017.2 -9.9 -9.999 -99.9 -99.99 -9.99
2019/08/17 13:30 EDT    7.58   8.34    9   49   11  76.3  72.5 1017.1 -9.9 -9.999 -99.9 -99.99 -9.99
2019/08/17 13:36 EDT    7.58   8.36    9   49   11  76.6  72.5 1017.2 -9.9 -9.999 -99.9 -99.99 -9.99
2019/08/17 13:42 EDT    7.58   8.36    8   50   10  77.2  72.5 1017.3 -9.9 -9.999 -99.9 -99.99 -9.99
2019/08/17 13:48 EDT    7.58   8.37    8   53    9  77.2  72.5 1017.3 -9.9 -9.999 -99.9 -99.99 -9.99
2019/08/17 13:54 EDT    7.57   8.36    8   53    9  77.7  72.5 1017.2 -9.9 -9.999 -99.9 -99.99 -9.99
2019/08/17 14:00 EDT    7.55   8.36    8   58    9  77.7  72.5 1017.1 -9.9 -9.999 -99.9 -99.99 -9.99
2019/08/17 14:06 EDT    7.53   8.35    7   62    8  78.8  72.5 1017.0 -9.9 -9.999 -99.9 -99.99 -9.99
2019/08/17 14:12 EDT    7.50   8.34    7   49    9  79.3  72.5 1016.8 -9.9 -9.999 -99.9 -99.99 -9.99
2019/08/17 14:18 EDT    7.46   8.32    7   49    9  78.6  72.5 1016.8 -9.9 -9.999 -99.9 -99.99 -9.99
2019/08/17 14:24 EDT    7.41   8.30    7   58    9  79.5  72.5 1016.6 -9.9 -9.999 -99.9 -99.99 -9.99
2019/08/17 14:30 EDT    7.36   8.29    6   58    8  80.4  72.5 1016.5 -9.9 -9.999 -99.9 -99.99 -9.99
2019/08/17 14:36 EDT    7.30   8.26    7   47    8  78.4  72.5 1016.4 -9.9 -9.999 -99.9 -99.99 -9.99
2019/08/17 14:42 EDT    7.23   8.22    6   52    8  79.9  72.5 1016.3 -9.9 -9.999 -99.9 -99.99 -9.99
2019/08/17 14:48 EDT    7.15   8.18    6   55    9  78.8  72.5 1016.3 -9.9 -9.999 -99.9 -99.99 -9.99
2019/08/17 14:54 EDT    7.06   8.11    6   55    9  80.6  72.5 1016.1 -9.9 -9.999 -99.9 -99.99 -9.99
2019/08/17 15:00 EDT    6.95   8.04    5   61    8  81.7  72.5 1015.9 -9.9 -9.999 -99.9 -99.99 -9.99
2019/08/17 15:06 EDT    6.84   7.96    8   50    9  81.7  72.5 1015.9 -9.9 -9.999 -99.9 -99.99 -9.99
2019/08/17 15:12 EDT    6.72   7.87    7   58    9  80.4  72.5 1015.9 -9.9 -9.999 -99.9 -99.99 -9.99
2019/08/17 15:18 EDT    6.59   7.76    8   50   11  80.8  72.5 1015.8 -9.9 -9.999 -99.9 -99.99 -9.99
2019/08/17 15:24 EDT    6.44   7.62    9   51   10  79.3  72.5 1015.7 -9.9 -9.999 -99.9 -99.99 -9.99
2019/08/17 15:30 EDT    6.29   7.47    9   51   10  79.9  72.5 1015.6 -9.9 -9.999 -99.9 -99.99 -9.99
2019/08/17 15:36 EDT    6.13   7.31    6   66   10  79.0  72.5 1015.7 -9.9 -9.999 -99.9 -99.99 -9.99
2019/08/17 15:42 EDT    5.95   7.14    6   66   10  77.9  72.5 1015.6 -9.9 -9.999 -99.9 -99.99 -9.99
2019/08/17 15:48 EDT    5.77   6.96    5   66    8  77.7  72.5 1015.4 -9.9 -9.999 -99.9 -99.99 -9.99
2019/08/17 15:54 EDT    5.58   6.76    5   66    8  79.9  72.5 1015.4 -9.9 -9.999 -99.9 -99.99 -9.99
2019/08/17 16:00 EDT    5.38   6.55    5   61    7  80.4  72.5 1015.3 -9.9 -9.999 -99.9 -99.99 -9.99
2019/08/17 16:06 EDT    5.18   6.35    5   62    7  81.1  72.5 1015.1 -9.9 -9.999 -99.9 -99.99 -9.99
2019/08/17 16:12 EDT    4.97   6.13    5   55    6  80.6  72.5 1015.1 -9.9 -9.999 -99.9 -99.99 -9.99
2019/08/17 16:18 EDT    4.76   5.90    7   40    7  78.4  72.5 1015.1 -9.9 -9.999 -99.9 -99.99 -9.99
2019/08/17 16:24 EDT    4.54   5.68    4   55    7  79.3  72.5 1015.1 -9.9 -9.999 -99.9 -99.99 -9.99
2019/08/17 16:30 EDT    4.32   5.45    4   41    6  77.7  72.5 1015.1 -9.9 -9.999 -99.9 -99.99 -9.99
2019/08/17 16:36 EDT    4.10   5.23    2   13    5  77.7  72.5 1015.1 -9.9 -9.999 -99.9 -99.99 -9.99
2019/08/17 16:42 EDT    3.88   4.99    1  245    4  78.3  72.5 1015.0 -9.9 -9.999 -99.9 -99.99 -9.99
2019/08/17 16:48 EDT    3.66   4.76    1  295    3  79.2  72.5 1015.0 -9.9 -9.999 -99.9 -99.99 -9.99
2019/08/17 16:54 EDT    3.44   4.53    1  295    2  79.9  72.5 1014.9 -9.9 -9.999 -99.9 -99.99 -9.99
2019/08/17 17:00 EDT    3.22   4.30    5  230    6  79.7  72.7 1015.0 -9.9 -9.999 -99.9 -99.99 -9.99
2019/08/17 17:06 EDT    3.02   4.06    8  222    9  79.9  72.9 1014.9 -9.9 -9.999 -99.9 -99.99 -9.99
2019/08/17 17:12 EDT    2.81   3.83    9  217    9  80.2  72.9 1014.8 -9.9 -9.999 -99.9 -99.99 -9.99
2019/08/17 17:18 EDT    2.62   3.63    9  213   10  80.2  72.9 1014.8 -9.9 -9.999 -99.9 -99.99 -9.99
2019/08/17 17:24 EDT    2.43   3.41    8  219   10  80.4  72.9 1014.9 -9.9 -9.999 -99.9 -99.99 -9.99
2019/08/17 17:30 EDT    2.25   3.22    4  279    9  78.8  72.9 1015.0 -9.9 -9.999 -99.9 -99.99 -9.99
2019/08/17 17:36 EDT    2.08   3.05    4   67    6  79.2  73.0 1015.0 -9.9 -9.999 -99.9 -99.99 -9.99
2019/08/17 17:42 EDT    1.91   2.87    4   62    6  78.8  72.9 1015.0 -9.9 -9.999 -99.9 -99.99 -9.99
2019/08/17 17:48 EDT    1.76   2.71    3   50    5  77.5  73.0 1015.0 -9.9 -9.999 -99.9 -99.99 -9.99
2019/08/17 17:54 EDT    1.62   2.54    4   44    5  76.5  73.0 1014.9 -9.9 -9.999 -99.9 -99.99 -9.99
2019/08/17 18:00 EDT    1.50   2.38    3   47    4  76.3  73.0 1014.9 -9.9 -9.999 -99.9 -99.99 -9.99
2019/08/17 18:06 EDT    1.38   2.22    3   30    4  76.1  73.0 1014.9 -9.9 -9.999 -99.9 -99.99 -9.99
2019/08/17 18:12 EDT    1.27   2.07    1  333    4  76.8  73.2 1014.9 -9.9 -9.999 -99.9 -99.99 -9.99
2019/08/17 18:18 EDT    1.18   1.94    1  281    3  78.6  73.2 1014.9 -9.9 -9.999 -99.9 -99.99 -9.99
2019/08/17 18:24 EDT    1.09   1.79    7  214    8  79.2  73.2 1014.9 -9.9 -9.999 -99.9 -99.99 -9.99
2019/08/17 18:30 EDT    1.02   1.67    9  217   10  78.6  73.2 1014.8 -9.9 -9.999 -99.9 -99.99 -9.99
2019/08/17 18:36 EDT    0.95   1.59    8  209   10  78.8  73.4 1014.8 -9.9 -9.999 -99.9 -99.99 -9.99
2019/08/17 18:42 EDT    0.89   1.50    8  209   10  78.8  73.4 1014.8 -9.9 -9.999 -99.9 -99.99 -9.99
2019/08/17 18:48 EDT    0.84   1.47    7  215    9  79.2  73.4 1014.8 -9.9 -9.999 -99.9 -99.99 -9.99
2019/08/17 18:54 EDT    0.80   1.40    7  216    9  78.8  73.4 1014.7 -9.9 -9.999 -99.9 -99.99 -9.99
2019/08/17 19:00 EDT    0.77   1.38    8  218    9  78.6  73.4 1014.8 -9.9 -9.999 -99.9 -99.99 -9.99
2019/08/17 19:06 EDT    0.74   1.32    9  218   10  78.6  73.6 1014.8 -9.9 -9.999 -99.9 -99.99 -9.99
2019/08/17 19:12 EDT    0.72   1.29    9  207   11  78.3  73.6 1014.9 -9.9 -9.999 -99.9 -99.99 -9.99
2019/08/17 19:18 EDT    0.70   1.26    9  209    9  78.1  73.6 1014.9 -9.9 -9.999 -99.9 -99.99 -9.99
2019/08/17 19:24 EDT    0.69   1.24    7  211   10  77.9  73.6 1015.0 -9.9 -9.999 -99.9 -99.99 -9.99
2019/08/17 19:30 EDT    0.68   1.21    8  216    9  78.4  73.8 1015.1 -9.9 -9.999 -99.9 -99.99 -9.99
2019/08/17 19:36 EDT    0.67   1.19    8  216    9  77.5  73.8 1015.3 -9.9 -9.999 -99.9 -99.99 -9.99
2019/08/17 19:42 EDT    0.67   1.15    8  216   10  77.5  73.8 1015.2 -9.9 -9.999 -99.9 -99.99 -9.99
2019/08/17 19:48 EDT    0.67   1.14    9  219   10  77.5  73.9 1015.3 -9.9 -9.999 -99.9 -99.99 -9.99
2019/08/17 19:54 EDT    0.67   1.13    8  199    9  77.5  73.9 1015.4 -9.9 -9.999 -99.9 -99.99 -9.99
2019/08/17 20:00 EDT    0.67   1.12    5  196    9  77.5  73.9 1015.4 -9.9 -9.999 -99.9 -99.99 -9.99
2019/08/17 20:06 EDT    0.68   1.13    4  187    6  77.7  73.9 1015.5 -9.9 -9.999 -99.9 -99.99 -9.99
2019/08/17 20:12 EDT    0.70   1.13    5  213    6  77.5  74.1 1015.5 -9.9 -9.999 -99.9 -99.99 -9.99
2019/08/17 20:18 EDT    0.72   1.13    7  217    8  77.0  74.1 1015.6 -9.9 -9.999 -99.9 -99.99 -9.99
2019/08/17 20:24 EDT    0.74   1.16    7  212    8  76.3  74.1 1015.7 -9.9 -9.999 -99.9 -99.99 -9.99
2019/08/17 20:30 EDT    0.77   1.15    9  206    9  76.5  74.3 1015.6 -9.9 -9.999 -99.9 -99.99 -9.99
2019/08/17 20:36 EDT    0.81   1.18    7  204    9  76.5  74.3 1015.5 -9.9 -9.999 -99.9 -99.99 -9.99
2019/08/17 20:42 EDT    0.85   1.22    7  210    8  76.3  74.3 1015.6 -9.9 -9.999 -99.9 -99.99 -9.99
2019/08/17 20:48 EDT    0.91   1.27    6  211    7  76.1  74.3 1015.7 -9.9 -9.999 -99.9 -99.99 -9.99
2019/08/17 20:54 EDT    0.97   1.33    4  194    7  76.1  74.3 1015.7 -9.9 -9.999 -99.9 -99.99 -9.99
2019/08/17 21:00 EDT    1.04   1.40    4  194    7  76.1  74.3 1015.7 -9.9 -9.999 -99.9 -99.99 -9.99
2019/08/17 21:06 EDT    1.13   1.49    3  193    4  76.1  74.5 1015.8 -9.9 -9.999 -99.9 -99.99 -9.99
2019/08/17 21:12 EDT    1.22   1.60    1  215    4  75.9  74.5 1015.9 -9.9 -9.999 -99.9 -99.99 -9.99
2019/08/17 21:18 EDT    1.33   1.71    3  213    4  75.6  74.5 1016.0 -9.9 -9.999 -99.9 -99.99 -9.99
2019/08/17 21:24 EDT    1.46   1.81    6  199    7  75.4  74.5 1015.9 -9.9 -9.999 -99.9 -99.99 -9.99
2019/08/17 21:30 EDT    1.59   1.93    6  196    8  75.4  74.5 1016.0 -9.9 -9.999 -99.9 -99.99 -9.99
2019/08/17 21:36 EDT    1.74   2.07    5  199    7  75.4  74.3 1016.1 -9.9 -9.999 -99.9 -99.99 -9.99
2019/08/17 21:42 EDT    1.90   2.23    5  197    6  75.2  74.1 1016.2 -9.9 -9.999 -99.9 -99.99 -9.99
2019/08/17 21:48 EDT    2.08   2.43    4  196    6  75.2  73.9 1016.1 -9.9 -9.999 -99.9 -99.99 -9.99
2019/08/17 21:54 EDT    2.26   2.61    4  187    5  75.0  73.8 1016.0 -9.9 -9.999 -99.9 -99.99 -9.99
2019/08/17 22:00 EDT    2.46   2.82    5  196    6  75.0  73.6 1016.0 -9.9 -9.999 -99.9 -99.99 -9.99
2019/08/17 22:06 EDT    2.67   3.05    6  196    7  75.0  73.6 1015.8 -9.9 -9.999 -99.9 -99.99 -9.99
2019/08/17 22:12 EDT    2.89   3.28    7  212    8  75.0  73.6 1015.8 -9.9 -9.999 -99.9 -99.99 -9.99
2019/08/17 22:18 EDT    3.12   3.51    9  212    9  74.7  73.6 1015.8 -9.9 -9.999 -99.9 -99.99 -9.99
2019/08/17 22:24 EDT    3.35   3.75    8  204   10  74.7  73.6 1015.8 -9.9 -9.999 -99.9 -99.99 -9.99
2019/08/17 22:30 EDT    3.59   4.01    7  210    8  74.7  73.6 1015.8 -9.9 -9.999 -99.9 -99.99 -9.99
2019/08/17 22:36 EDT    3.83   4.27    6  212    7  74.7  73.6 1015.8 -9.9 -9.999 -99.9 -99.99 -9.99
2019/08/17 22:42 EDT    4.07   4.52    6  202    6  74.8  73.6 1015.8 -9.9 -9.999 -99.9 -99.99 -9.99
2019/08/17 22:48 EDT    4.32   4.76    5  200    6  74.8  73.6 1015.8 -9.9 -9.999 -99.9 -99.99 -9.99
2019/08/17 22:54 EDT    4.56   5.01    5  204    6  74.8  73.4 1015.8 -9.9 -9.999 -99.9 -99.99 -9.99
2019/08/17 23:00 EDT    4.80   5.24    6  216    7  74.7  73.4 1015.9 -9.9 -9.999 -99.9 -99.99 -9.99
2019/08/17 23:06 EDT    5.03   5.47    5  217    6  74.7  73.4 1016.0 -9.9 -9.999 -99.9 -99.99 -9.99
2019/08/17 23:12 EDT    5.26   5.68    6  219    7  74.5  73.4 1016.0 -9.9 -9.999 -99.9 -99.99 -9.99
2019/08/17 23:18 EDT    5.48   5.90    7  225    7  74.5  73.6 1016.0 -9.9 -9.999 -99.9 -99.99 -9.99
2019/08/17 23:24 EDT    5.70   6.10    7  225    7  74.7  73.6 1016.1 -9.9 -9.999 -99.9 -99.99 -9.99
2019/08/17 23:30 EDT    5.90   6.30    7  216    7  74.5  73.6 1016.2 -9.9 -9.999 -99.9 -99.99 -9.99
2019/08/17 23:36 EDT    6.09   6.48    5  202    7  74.7  73.6 1016.2 -9.9 -9.999 -99.9 -99.99 -9.99
2019/08/17 23:42 EDT    6.27   6.66    4  187    7  74.7  73.6 1016.0 -9.9 -9.999 -99.9 -99.99 -9.99
2019/08/17 23:48 EDT    6.44   6.84    4  204    6  75.0  73.6 1015.9 -9.9 -9.999 -99.9 -99.99 -9.99
2019/08/17 23:54 EDT    6.59   7.01    4  196    5  75.0  73.6 1015.9 -9.9 -9.999 -99.9 -99.99 -9.99
2019/08/18 00:00 EDT    6.73   7.17    4  196    5  75.0  73.6 1015.8 -9.9 -9.999 -99.9 -99.99 -9.99
2019/08/18 00:06 EDT    6.86   7.30    2  165    3  75.2  73.6 1015.9 -9.9 -9.999 -99.9 -99.99 -9.99
2019/08/18 00:12 EDT    6.98   7.44    1  173    3  75.2  73.6 1016.0 -9.9 -9.999 -99.9 -99.99 -9.99
2019/08/18 00:18 EDT    7.08   7.57    0  197    1  75.2  73.6 1016.1 -9.9 -9.999 -99.9 -99.99 -9.99
2019/08/18 00:24 EDT    7.17   7.68    2  176    3  75.2  73.6 1016.1 -9.9 -9.999 -99.9 -99.99 -9.99
2019/08/18 00:30 EDT    7.26   7.79    2  164    4  75.2  73.6 1016.0 -9.9 -9.999 -99.9 -99.99 -9.99
2019/08/18 00:36 EDT    7.33   7.88    2  150    2  75.4  73.6 1016.0 -9.9 -9.999 -99.9 -99.99 -9.99
2019/08/18 00:42 EDT    7.39   7.97    2   79    2  75.4  73.6 1016.0 -9.9 -9.999 -99.9 -99.99 -9.99
2019/08/18 00:48 EDT    7.44   8.05   14   38   16  74.3  73.4 1016.3 -9.9 -9.999 -99.9 -99.99 -9.99
2019/08/18 00:54 EDT    7.48   8.07    9   74   16  74.3  73.4 1016.3 -9.9 -9.999 -99.9 -99.99 -9.99
2019/08/18 01:00 EDT    7.52   8.10    3  340   11  73.6  73.4 1015.9 -9.9 -9.999 -99.9 -99.99 -9.99
2019/08/18 01:06 EDT    7.54   8.15    4  103    8  73.6  73.4 1015.9 -9.9 -9.999 -99.9 -99.99 -9.99
2019/08/18 01:12 EDT    7.57   8.18    4  103    8  74.5  73.4 1016.0 -9.9 -9.999 -99.9 -99.99 -9.99
2019/08/18 01:18 EDT    7.58   8.20    2  104    6  74.3  73.4 1016.1 -9.9 -9.999 -99.9 -99.99 -9.99
2019/08/18 01:24 EDT    7.59   8.21    4   82    6  74.3  73.4 1016.1 -9.9 -9.999 -99.9 -99.99 -9.99
2019/08/18 01:30 EDT    7.60   8.21    5   75    6  74.1  73.4 1016.1 -9.9 -9.999 -99.9 -99.99 -9.99
2019/08/18 01:36 EDT    7.60   8.21    4   73    6  74.1  73.4 1016.1 -9.9 -9.999 -99.9 -99.99 -9.99
2019/08/18 01:42 EDT    7.60   8.22    4   87    5  74.1  73.4 1016.1 -9.9 -9.999 -99.9 -99.99 -9.99
2019/08/18 01:48 EDT    7.59   8.23    4   87    5  74.1  73.4 1016.1 -9.9 -9.999 -99.9 -99.99 -9.99
2019/08/18 01:54 EDT    7.58   8.24    3  116    5  73.9  73.4 1016.1 -9.9 -9.999 -99.9 -99.99 -9.99
2019/08/18 02:00 EDT    7.56   8.25    3  128    3  73.9  73.4 1016.0 -9.9 -9.999 -99.9 -99.99 -9.99
2019/08/18 02:06 EDT    7.54   8.25    3  128    3  73.9  73.4 1016.0 -9.9 -9.999 -99.9 -99.99 -9.99
2019/08/18 02:12 EDT    7.52   8.25    0  143    2  74.1  73.4 1016.0 -9.9 -9.999 -99.9 -99.99 -9.99
2019/08/18 02:18 EDT    7.49   8.24    0  269    1  74.1  73.4 1016.0 -9.9 -9.999 -99.9 -99.99 -9.99
2019/08/18 02:24 EDT    7.46   8.23    0  187    0  73.9  73.4 1016.0 -9.9 -9.999 -99.9 -99.99 -9.99
2019/08/18 02:30 EDT    7.42   8.22    1  156    1  73.9  73.4 1015.9 -9.9 -9.999 -99.9 -99.99 -9.99
2019/08/18 02:36 EDT    7.37   8.20    1  156    1  73.9  73.4 1015.9 -9.9 -9.999 -99.9 -99.99 -9.99
2019/08/18 02:42 EDT    7.32   8.17    1  148    2  73.9  73.4 1016.0 -9.9 -9.999 -99.9 -99.99 -9.99
2019/08/18 02:48 EDT    7.26   8.13    2  161    3  74.1  73.4 1016.0 -9.9 -9.999 -99.9 -99.99 -9.99
2019/08/18 02:54 EDT    7.19   8.09    2  160    3  74.3  73.4 1016.1 -9.9 -9.999 -99.9 -99.99 -9.99
2019/08/18 03:00 EDT    7.11   8.03    2  143    4  74.5  73.4 1016.1 -9.9 -9.999 -99.9 -99.99 -9.99
2019/08/18 03:06 EDT    7.03   7.95    1  144    1  74.5  73.4 1016.2 -9.9 -9.999 -99.9 -99.99 -9.99
2019/08/18 03:12 EDT    6.93   7.86    1  124    2  74.5  73.4 1016.2 -9.9 -9.999 -99.9 -99.99 -9.99
2019/08/18 03:18 EDT    6.83   7.75    1  104    2  74.5  73.4 1016.1 -9.9 -9.999 -99.9 -99.99 -9.99
2019/08/18 03:24 EDT    6.71   7.64    1  153    2  74.7  73.4 1016.0 -9.9 -9.999 -99.9 -99.99 -9.99
2019/08/18 03:30 EDT    6.59   7.50    2   37    4  74.7  73.4 1016.1 -9.9 -9.999 -99.9 -99.99 -9.99
2019/08/18 03:36 EDT    6.45   7.36    2   59    4  74.1  73.4 1016.1 -9.9 -9.999 -99.9 -99.99 -9.99
2019/08/18 03:42 EDT    6.31   7.21    3   48    4  74.1  73.4 1016.0 -9.9 -9.999 -99.9 -99.99 -9.99
2019/08/18 03:48 EDT    6.16   7.04    3   58    4  73.9  73.4 1016.1 -9.9 -9.999 -99.9 -99.99 -9.99
2019/08/18 03:54 EDT    5.99   6.86    2   74    4  73.9  73.4 1016.0 -9.9 -9.999 -99.9 -99.99 -9.99
2019/08/18 04:00 EDT    5.82   6.67    1  114    3  73.9  73.4 1016.0 -9.9 -9.999 -99.9 -99.99 -9.99
2019/08/18 04:06 EDT    5.64   6.46    2   42    3  74.1  73.4 1016.0 -9.9 -9.999 -99.9 -99.99 -9.99
2019/08/18 04:12 EDT    5.45   6.24    4   42    5  73.6  73.4 1016.1 -9.9 -9.999 -99.9 -99.99 -9.99
2019/08/18 04:18 EDT    5.25   6.02    5   46    6  73.4  73.2 1016.0 -9.9 -9.999 -99.9 -99.99 -9.99
2019/08/18 04:24 EDT    5.04   5.79    4   67    7  73.2  73.2 1016.0 -9.9 -9.999 -99.9 -99.99 -9.99
2019/08/18 04:30 EDT    4.83   5.55    3   68    4  73.2  73.2 1016.1 -9.9 -9.999 -99.9 -99.99 -9.99
2019/08/18 04:36 EDT    4.62   5.32    4   61    5  73.4  73.2 1016.0 -9.9 -9.999 -99.9 -99.99 -9.99
2019/08/18 04:42 EDT    4.39   5.09    3   80    5  73.4  73.2 1016.0 -9.9 -9.999 -99.9 -99.99 -9.99
2019/08/18 04:48 EDT    4.17   4.85    3   84    5  73.4  73.2 1016.0 -9.9 -9.999 -99.9 -99.99 -9.99
2019/08/18 04:54 EDT    3.94   4.62    3   86    4  73.4  73.2 1015.9 -9.9 -9.999 -99.9 -99.99 -9.99
2019/08/18 05:00 EDT    3.72   4.38    2   84    4  73.4  73.2 1015.9 -9.9 -9.999 -99.9 -99.99 -9.99
2019/08/18 05:06 EDT    3.49   4.14    2   74    3  73.6  73.2 1015.9 -9.9 -9.999 -99.9 -99.99 -9.99
2019/08/18 05:12 EDT    3.27   3.91    1  116    3  73.6  73.2 1016.0 -9.9 -9.999 -99.9 -99.99 -9.99
2019/08/18 05:18 EDT    3.05   3.68    0  218    3  73.6  73.2 1016.0 -9.9 -9.999 -99.9 -99.99 -9.99
2019/08/18 05:24 EDT    2.83   3.46    3   36    4  73.8  73.2 1016.1 -9.9 -9.999 -99.9 -99.99 -9.99
2019/08/18 05:30 EDT    2.62   3.25    4   31    4  73.4  73.2 1016.0 -9.9 -9.999 -99.9 -99.99 -9.99
2019/08/18 05:36 EDT    2.41   3.04    4   44    4  73.2  73.2 1016.1 -9.9 -9.999 -99.9 -99.99 -9.99
2019/08/18 05:42 EDT    2.21   2.84    5   44    7  72.9  73.2 1016.1 -9.9 -9.999 -99.9 -99.99 -9.99
2019/08/18 05:48 EDT    2.02   2.64    6   54    7  72.7  73.2 1016.3 -9.9 -9.999 -99.9 -99.99 -9.99
2019/08/18 05:54 EDT    1.84   2.47    3   66    5  72.9  73.2 1016.4 -9.9 -9.999 -99.9 -99.99 -9.99
2019/08/18 06:00 EDT    1.67   2.30    1   76    2  72.9  73.2 1016.5 -9.9 -9.999 -99.9 -99.99 -9.99
2019/08/18 06:06 EDT    1.51   2.15    2   64    3  72.9  73.2 1016.5 -9.9 -9.999 -99.9 -99.99 -9.99
2019/08/18 06:12 EDT    1.37   2.00    2   62    3  72.9  73.2 1016.6 -9.9 -9.999 -99.9 -99.99 -9.99
2019/08/18 06:18 EDT    1.23   1.87    5   55    5  73.0  73.2 1016.6 -9.9 -9.999 -99.9 -99.99 -9.99
2019/08/18 06:24 EDT    1.10   1.75    4   61    5  72.9  73.2 1016.7 -9.9 -9.999 -99.9 -99.99 -9.99
2019/08/18 06:30 EDT    0.99   1.64    3   61    4  72.9  73.2 1016.8 -9.9 -9.999 -99.9 -99.99 -9.99
2019/08/18 06:36 EDT    0.89   1.55    2   85    3  72.9  73.2 1016.8 -9.9 -9.999 -99.9 -99.99 -9.99
2019/08/18 06:42 EDT    0.80   1.47    2   80    3  73.0  73.4 1016.8 -9.9 -9.999 -99.9 -99.99 -9.99
2019/08/18 06:48 EDT    0.72   1.40    3  117    4  73.0  73.4 1016.8 -9.9 -9.999 -99.9 -99.99 -9.99
2019/08/18 06:54 EDT    0.65   1.34    2  121    4  73.2  73.6 1016.8 -9.9 -9.999 -99.9 -99.99 -9.99
2019/08/18 07:00 EDT    0.60   1.30    3  107    4  73.2  73.6 1016.7 -9.9 -9.999 -99.9 -99.99 -9.99
2019/08/18 07:06 EDT    0.55   1.26    2   89    4  73.4  73.8 1016.8 -9.9 -9.999 -99.9 -99.99 -9.99
2019/08/18 07:12 EDT    0.51   1.23    1   66    3  73.6  73.8 1016.8 -9.9 -9.999 -99.9 -99.99 -9.99
2019/08/18 07:18 EDT    0.48   1.22    2   36    3  73.6  73.8 1016.9 -9.9 -9.999 -99.9 -99.99 -9.99
2019/08/18 07:24 EDT    0.46   1.21    4   50    5  73.4  73.8 1017.3 -9.9 -9.999 -99.9 -99.99 -9.99
2019/08/18 07:30 EDT    0.44   1.19    3   49    4  73.4  73.8 1017.3 -9.9 -9.999 -99.9 -99.99 -9.99
2019/08/18 07:36 EDT    0.43   1.19    4   53    5  73.6  73.8 1017.4 -9.9 -9.999 -99.9 -99.99 -9.99
2019/08/18 07:42 EDT    0.43   1.18    3   53    4  73.8  73.9 1017.5 -9.9 -9.999 -99.9 -99.99 -9.99
2019/08/18 07:48 EDT    0.43   1.17    3   72    4  73.8  73.9 1017.5 -9.9 -9.999 -99.9 -99.99 -9.99
2019/08/18 07:54 EDT    0.43   1.16    1   54    3  73.6  73.9 1017.5 -9.9 -9.999 -99.9 -99.99 -9.99
2019/08/18 08:00 EDT    0.44   1.14    4   48    4  73.8  73.9 1017.5 -9.9 -9.999 -99.9 -99.99 -9.99
2019/08/18 08:06 EDT    0.45   1.11    4   54    5  73.8  73.9 1017.6 -9.9 -9.999 -99.9 -99.99 -9.99
2019/08/18 08:12 EDT    0.46   1.08    4   63    4  73.8  73.9 1017.6 -9.9 -9.999 -99.9 -99.99 -9.99
2019/08/18 08:18 EDT    0.48   1.05    3   60    4  73.8  73.9 1017.6 -9.9 -9.999 -99.9 -99.99 -9.99
2019/08/18 08:24 EDT    0.50   1.02    3   52    3  73.9  73.9 1017.5 -9.9 -9.999 -99.9 -99.99 -9.99
2019/08/18 08:30 EDT    0.53   0.99    2   47    3  74.1  73.9 1017.5 -9.9 -9.999 -99.9 -99.99 -9.99
2019/08/18 08:36 EDT    0.56   0.96    2   47    3  74.1  73.9 1017.5 -9.9 -9.999 -99.9 -99.99 -9.99
2019/08/18 08:42 EDT    0.59   0.94    1   22    2  74.1  73.9 1017.5 -9.9 -9.999 -99.9 -99.99 -9.99
2019/08/18 08:48 EDT    0.63   0.92    0  213    1  74.7  73.9 1017.4 -9.9 -9.999 -99.9 -99.99 -9.99
2019/08/18 08:54 EDT    0.67   0.90    2  227    2  74.7  73.9 1017.3 -9.9 -9.999 -99.9 -99.99 -9.99
2019/08/18 09:00 EDT    0.72   0.90    1  211    2  75.0  73.9 1017.3 -9.9 -9.999 -99.9 -99.99 -9.99
2019/08/18 09:06 EDT    0.78   0.91    1  177    2  75.7  73.9 1017.2 -9.9 -9.999 -99.9 -99.99 -9.99
2019/08/18 09:12 EDT    0.85   0.93    2  215    4  75.9  73.9 1017.2 -9.9 -9.999 -99.9 -99.99 -9.99
2019/08/18 09:18 EDT    0.92   0.95    5  203    5  75.9  73.9 1017.2 -9.9 -9.999 -99.9 -99.99 -9.99
2019/08/18 09:24 EDT    1.01   0.99    5  218    6  75.9  73.9 1017.2 -9.9 -9.999 -99.9 -99.99 -9.99
2019/08/18 09:30 EDT    1.10   1.04    5  215    6  75.9  73.8 1017.3 -9.9 -9.999 -99.9 -99.99 -9.99
2019/08/18 09:36 EDT    1.21   1.11    5  206    6  76.3  73.8 1017.3 -9.9 -9.999 -99.9 -99.99 -9.99
2019/08/18 09:42 EDT    1.33   1.20    4  210    6  76.6  73.8 1017.3 -9.9 -9.999 -99.9 -99.99 -9.99
2019/08/18 09:48 EDT    1.46   1.32    4  210    6  77.0  73.8 1017.2 -9.9 -9.999 -99.9 -99.99 -9.99
2019/08/18 09:54 EDT    1.60   1.47    6   60    8  77.4  73.6 1017.2 -9.9 -9.999 -99.9 -99.99 -9.99
2019/08/18 10:00 EDT    1.76   1.64    4   58    7  75.7  73.6 1017.1 -9.9 -9.999 -99.9 -99.99 -9.99
2019/08/18 10:06 EDT    1.93   1.83    5   53    7  76.1  73.6 1017.2 -9.9 -9.999 -99.9 -99.99 -9.99
2019/08/18 10:12 EDT    2.11   2.04    4   50    6  75.7  73.4 1017.2 -9.9 -9.999 -99.9 -99.99 -9.99
2019/08/18 10:18 EDT    2.30   2.26    5   53    7  75.6  73.4 1017.2 -9.9 -9.999 -99.9 -99.99 -9.99
2019/08/18 10:24 EDT    2.51   2.51    5   50    6  75.6  73.4 1017.3 -9.9 -9.999 -99.9 -99.99 -9.99
2019/08/18 10:30 EDT    2.72   2.76    4   54    6  75.7  73.4 1017.4 -9.9 -9.999 -99.9 -99.99 -9.99
2019/08/18 10:36 EDT    2.94   3.02    3   47    5  76.1  73.4 1017.4 -9.9 -9.999 -99.9 -99.99 -9.99
2019/08/18 10:42 EDT    3.17   3.29    5   48    6  75.7  73.4 1017.4 -9.9 -9.999 -99.9 -99.99 -9.99
2019/08/18 10:48 EDT    3.41   3.58    6   46    7  75.6  73.4 1017.3 -9.9 -9.999 -99.9 -99.99 -9.99
2019/08/18 10:54 EDT    3.65   3.85    6   46    7  75.6  73.4 1017.3 -9.9 -9.999 -99.9 -99.99 -9.99
2019/08/18 11:00 EDT    3.89   4.13    6   56    8  75.9  73.4 1017.2 -9.9 -9.999 -99.9 -99.99 -9.99
2019/08/18 11:06 EDT    4.14   4.41    6   58    7  76.1  73.4 1017.2 -9.9 -9.999 -99.9 -99.99 -9.99
2019/08/18 11:12 EDT    4.38   4.70    6   58    7  76.5  73.4 1017.2 -9.9 -9.999 -99.9 -99.99 -9.99
2019/08/18 11:18 EDT    4.62   4.97    5   59    6  77.2  73.4 1016.9 -9.9 -9.999 -99.9 -99.99 -9.99
2019/08/18 11:24 EDT    4.86   5.23    5   59    6  77.2  73.4 1016.9 -9.9 -9.999 -99.9 -99.99 -9.99
2019/08/18 11:30 EDT    5.10   5.48    4   48    5  77.7  73.4 1016.9 -9.9 -9.999 -99.9 -99.99 -9.99
2019/08/18 11:36 EDT    5.33   5.72    4   50    5  77.7  73.4 1016.9 -9.9 -9.999 -99.9 -99.99 -9.99
2019/08/18 11:42 EDT    5.55   5.94    5   49    5  78.1  73.4 1016.8 -9.9 -9.999 -99.9 -99.99 -9.99
2019/08/18 11:48 EDT    5.76   6.16    4   49    5  79.3  73.4 1016.8 -9.9 -9.999 -99.9 -99.99 -9.99
2019/08/18 11:54 EDT    5.96   6.35    3   52    4  79.9  73.4 1016.7 -9.9 -9.999 -99.9 -99.99 -9.99
2019/08/18 12:00 EDT    6.15   6.53    3   52    4  79.9  73.4 1016.7 -9.9 -9.999 -99.9 -99.99 -9.99
2019/08/18 12:06 EDT    6.32   6.71    4   52    5  79.7  73.4 1016.7 -9.9 -9.999 -99.9 -99.99 -9.99
2019/08/18 12:12 EDT    6.49   6.87    3   56    5  80.4  73.4 1016.6 -9.9 -9.999 -99.9 -99.99 -9.99
2019/08/18 12:18 EDT    6.64   7.02    3   40    4  80.2  73.4 1016.5 -9.9 -9.999 -99.9 -99.99 -9.99
2019/08/18 12:24 EDT    6.78   7.17    2   25    4  80.4  73.2 1016.6 -9.9 -9.999 -99.9 -99.99 -9.99
2019/08/18 12:30 EDT    6.90   7.30    2   42    3  81.5  73.2 1016.5 -9.9 -9.999 -99.9 -99.99 -9.99
2019/08/18 12:36 EDT    7.02   7.41    1  354    3  81.3  73.2 1016.5 -9.9 -9.999 -99.9 -99.99 -9.99
2019/08/18 12:42 EDT    7.12   7.53    3   21    3  81.0  73.2 1016.5 -9.9 -9.999 -99.9 -99.99 -9.99
2019/08/18 12:48 EDT    7.21   7.62    1   50    2  82.2  73.2 1016.4 -9.9 -9.999 -99.9 -99.99 -9.99
2019/08/18 12:54 EDT    7.28   7.70    1  239    3  83.1  73.2 1016.3 -9.9 -9.999 -99.9 -99.99 -9.99
2019/08/18 13:00 EDT    7.35   7.78    5  213    7  83.3  73.4 1016.3 -9.9 -9.999 -99.9 -99.99 -9.99
2019/08/18 13:06 EDT    7.40   7.83    8  216   10  81.7  73.4 1016.4 -9.9 -9.999 -99.9 -99.99 -9.99
2019/08/18 13:12 EDT    7.45   7.87    9  216   10  82.2  73.4 1016.5 -9.9 -9.999 -99.9 -99.99 -9.99
2019/08/18 13:18 EDT    7.49   7.90   11  210   13  81.0  73.4 1016.5 -9.9 -9.999 -99.9 -99.99 -9.99
2019/08/18 13:24 EDT    7.51   7.93    4  170   11  83.1  73.4 1016.6 -9.9 -9.999 -99.9 -99.99 -9.99
2019/08/18 13:30 EDT    7.54   7.95    4  198    6  84.2  73.4 1016.6 -9.9 -9.999 -99.9 -99.99 -9.99
2019/08/18 13:36 EDT    7.55   7.96    4  204    6  84.2  73.4 1016.6 -9.9 -9.999 -99.9 -99.99 -9.99
2019/08/18 13:42 EDT    7.56   7.98    8  231   10  84.0  73.4 1016.5 -9.9 -9.999 -99.9 -99.99 -9.99
2019/08/18 13:48 EDT    7.57   7.97    9  210   11  83.7  73.4 1016.4 -9.9 -9.999 -99.9 -99.99 -9.99
2019/08/18 13:54 EDT    7.57   7.99    8  236   12  83.8  73.4 1016.3 -9.9 -9.999 -99.9 -99.99 -9.99
2019/08/18 14:00 EDT    7.57   8.00    8  221   11  82.9  73.4 1016.3 -9.9 -9.999 -99.9 -99.99 -9.99
2019/08/18 14:06 EDT    7.56   8.02    8  206   11  83.5  73.4 1016.3 -9.9 -9.999 -99.9 -99.99 -9.99
2019/08/18 14:12 EDT    7.55   8.03   11  215   13  83.5  73.4 1016.2 -9.9 -9.999 -99.9 -99.99 -9.99
2019/08/18 14:18 EDT    7.53   8.03   10  221   12  83.1  73.4 1016.2 -9.9 -9.999 -99.9 -99.99 -9.99
2019/08/18 14:24 EDT    7.51   8.02   11  220   14  85.5  73.4 1016.1 -9.9 -9.999 -99.9 -99.99 -9.99
2019/08/18 14:30 EDT    7.49   8.02   13  214   16  84.2  73.4 1016.0 -9.9 -9.999 -99.9 -99.99 -9.99
2019/08/18 14:36 EDT    7.46   8.02   11  213   15  84.2  73.4 1016.1 -9.9 -9.999 -99.9 -99.99 -9.99
2019/08/18 14:42 EDT    7.43   8.02   11  219   14  84.2  73.4 1016.0 -9.9 -9.999 -99.9 -99.99 -9.99
2019/08/18 14:48 EDT    7.39   8.01    9  215   11  83.5  73.2 1015.9 -9.9 -9.999 -99.9 -99.99 -9.99
2019/08/18 14:54 EDT    7.35   7.97   10  218   14  83.5  73.2 1015.8 -9.9 -9.999 -99.9 -99.99 -9.99
2019/08/18 15:00 EDT    7.31   7.96   12  220   15  83.8  73.2 1015.7 -9.9 -9.999 -99.9 -99.99 -9.99
2019/08/18 15:06 EDT    7.25   7.92   11  216   14  83.5  73.2 1015.8 -9.9 -9.999 -99.9 -99.99 -9.99
2019/08/18 15:12 EDT    7.19   7.88   11  218   16  83.5  73.4 1015.8 -9.9 -9.999 -99.9 -99.99 -9.99
2019/08/18 15:18 EDT    7.12   7.84   11  221   14  84.2  73.4 1015.8 -9.9 -9.999 -99.9 -99.99 -9.99
2019/08/18 15:24 EDT    7.05   7.78   12  218   13  83.7  73.6 1015.6 -9.9 -9.999 -99.9 -99.99 -9.99
2019/08/18 15:30 EDT    6.97   7.72   12  210   15  83.5  73.8 1015.5 -9.9 -9.999 -99.9 -99.99 -9.99
2019/08/18 15:36 EDT    6.87   7.65   10  215   14  82.9  73.9 1015.4 -9.9 -9.999 -99.9 -99.99 -9.99
2019/08/18 15:42 EDT    6.77   7.56   13  203   16  83.7  73.9 1015.2 -9.9 -9.999 -99.9 -99.99 -9.99
2019/08/18 15:48 EDT    6.66   7.46   14  216   16  84.0  74.1 1015.2 -9.9 -9.999 -99.9 -99.99 -9.99
2019/08/18 15:54 EDT    6.54   7.36   14  218   16  83.8  74.3 1015.2 -9.9 -9.999 -99.9 -99.99 -9.99
2019/08/18 16:00 EDT    6.41   7.26   13  215   15  82.9  74.3 1015.3 -9.9 -9.999 -99.9 -99.99 -9.99
2019/08/18 16:06 EDT    6.27   7.12   15  214   17  82.9  74.3 1015.5 -9.9 -9.999 -99.9 -99.99 -9.99
2019/08/18 16:12 EDT    6.13   6.98   14  215   16  82.2  74.3 1015.6 -9.9 -9.999 -99.9 -99.99 -9.99
2019/08/18 16:18 EDT    5.97   6.83   15  210   17  82.2  74.3 1015.6 -9.9 -9.999 -99.9 -99.99 -9.99
2019/08/18 16:24 EDT    5.80   6.64   15  213   17  82.2  74.5 1015.7 -9.9 -9.999 -99.9 -99.99 -9.99
2019/08/18 16:30 EDT    5.62   6.47   15  212   17  82.0  74.5 1015.8 -9.9 -9.999 -99.9 -99.99 -9.99
2019/08/18 16:36 EDT    5.44   6.30   16  210   19  82.0  74.5 1015.9 -9.9 -9.999 -99.9 -99.99 -9.99
2019/08/18 16:42 EDT    5.25   6.07   16  215   17  81.7  74.5 1015.8 -9.9 -9.999 -99.9 -99.99 -9.99
2019/08/18 16:48 EDT    5.05   5.86   15  211   18  81.3  74.5 1015.7 -9.9 -9.999 -99.9 -99.99 -9.99
2019/08/18 16:54 EDT    4.85   5.63   17  224   20  82.0  74.5 1015.6 -9.9 -9.999 -99.9 -99.99 -9.99
2019/08/18 17:00 EDT    4.64   5.41   18  217   20  81.7  74.7 1015.4 -9.9 -9.999 -99.9 -99.99 -9.99
2019/08/18 17:06 EDT    4.42   5.19   19  216   20  81.5  74.7 1015.1 -9.9 -9.999 -99.9 -99.99 -9.99
2019/08/18 17:12 EDT    4.21   4.96   16  224   19  81.3  74.7 1015.4 -9.9 -9.999 -99.9 -99.99 -9.99
2019/08/18 17:18 EDT    3.99   4.72   17  220   18  81.1  74.7 1015.3 -9.9 -9.999 -99.9 -99.99 -9.99
2019/08/18 17:24 EDT    3.77   4.49   17  220   19  81.1  74.7 1015.4 -9.9 -9.999 -99.9 -99.99 -9.99
2019/08/18 17:30 EDT    3.55   4.26   16  214   18  80.4  74.7 1015.5 -9.9 -9.999 -99.9 -99.99 -9.99
2019/08/18 17:36 EDT    3.34   4.03   13  218   18  80.1  74.8 1015.7 -9.9 -9.999 -99.9 -99.99 -9.99
2019/08/18 17:42 EDT    3.12   3.79   11  225   15  79.9  74.8 1015.6 -9.9 -9.999 -99.9 -99.99 -9.99
2019/08/18 17:48 EDT    2.91   3.55   11  223   12  80.1  74.8 1015.4 -9.9 -9.999 -99.9 -99.99 -9.99
2019/08/18 17:54 EDT    2.71   3.34   10  226   14  80.1  74.8 1015.4 -9.9 -9.999 -99.9 -99.99 -9.99
2019/08/18 18:00 EDT    2.51   3.12    9  230   11  79.9  74.8 1015.6 -9.9 -9.999 -99.9 -99.99 -9.99
2019/08/18 18:06 EDT    2.32 -99.99 -999 -999 -999 -99.9 -99.9 -999.9 -9.9 -9.999 -99.9 -99.99 -9.99
2019/08/18 18:12 EDT    2.14 -99.99 -999 -999 -999 -99.9 -99.9 -999.9 -9.9 -9.999 -99.9 -99.99 -9.99
2019/08/18 18:18 EDT    1.96 -99.99 -999 -999 -999 -99.9 -99.9 -999.9 -9.9 -9.999 -99.9 -99.99 -9.99

Revised: 08/08/2018
NOAA / National Ocean Service
Web site owner: Center for Operational Oceanographic Products and Services